<?xml version="1.0" encoding="UTF-8" standalone="no" ?>
<gpx xmlns="http://www.topografix.com/GPX/1/1" xmlns:xsi="http://www.w3.org/2001/XMLSchema-instance" xsi:schemaLocation="http://www.topografix.com/GPX/1/1 http://www.topografix.com/GPX/1/1/gpx.xsd" version="1.1" creator="VisuGPX - https://www.visugpx.com">
  <metadata>
    <name>Demuin- 13 km</name>
    <desc><![CDATA[Walkmeter Marche 28 avr. 2013 09:02:12]]></desc>
  </metadata>
  <trk>
    <name><![CDATA[Ch en S - Demuin]]></name>
    <trkseg>
      <trkpt lat="49.81956" lon="2.53689">
        <ele>52.5</ele>
        <time>2013-04-28T07:02:16Z</time>
      </trkpt>
      <trkpt lat="49.81956" lon="2.53689">
        <ele>52.5</ele>
        <time>2013-04-28T07:06:14Z</time>
      </trkpt>
      <trkpt lat="49.81949" lon="2.53685">
        <ele>48.1</ele>
        <time>2013-04-28T07:06:18Z</time>
      </trkpt>
      <trkpt lat="49.81948" lon="2.53663">
        <ele>48.4</ele>
        <time>2013-04-28T07:06:29Z</time>
      </trkpt>
      <trkpt lat="49.8195" lon="2.53642">
        <ele>48.7</ele>
        <time>2013-04-28T07:06:39Z</time>
      </trkpt>
      <trkpt lat="49.81957" lon="2.53624">
        <ele>48.9</ele>
        <time>2013-04-28T07:06:48Z</time>
      </trkpt>
      <trkpt lat="49.81961" lon="2.53603">
        <ele>49.3</ele>
        <time>2013-04-28T07:06:59Z</time>
      </trkpt>
      <trkpt lat="49.8197" lon="2.53586">
        <ele>49.8</ele>
        <time>2013-04-28T07:07:16Z</time>
      </trkpt>
      <trkpt lat="49.81981" lon="2.53574">
        <ele>50.1</ele>
        <time>2013-04-28T07:07:28Z</time>
      </trkpt>
      <trkpt lat="49.81991" lon="2.53558">
        <ele>50.4</ele>
        <time>2013-04-28T07:07:39Z</time>
      </trkpt>
      <trkpt lat="49.81985" lon="2.53537">
        <ele>50.8</ele>
        <time>2013-04-28T07:07:51Z</time>
      </trkpt>
      <trkpt lat="49.81977" lon="2.53517">
        <ele>51</ele>
        <time>2013-04-28T07:08:00Z</time>
      </trkpt>
      <trkpt lat="49.81966" lon="2.53505">
        <ele>51.3</ele>
        <time>2013-04-28T07:08:08Z</time>
      </trkpt>
      <trkpt lat="49.8196" lon="2.53496">
        <ele>51.5</ele>
        <time>2013-04-28T07:08:15Z</time>
      </trkpt>
      <trkpt lat="49.81949" lon="2.53482">
        <ele>52.1</ele>
        <time>2013-04-28T07:08:36Z</time>
      </trkpt>
      <trkpt lat="49.81939" lon="2.53464">
        <ele>52.4</ele>
        <time>2013-04-28T07:08:46Z</time>
      </trkpt>
      <trkpt lat="49.81937" lon="2.53443">
        <ele>52.7</ele>
        <time>2013-04-28T07:08:55Z</time>
      </trkpt>
      <trkpt lat="49.81927" lon="2.53427">
        <ele>53.4</ele>
        <time>2013-04-28T07:09:08Z</time>
      </trkpt>
      <trkpt lat="49.81917" lon="2.53412">
        <ele>57.1</ele>
        <time>2013-04-28T07:09:20Z</time>
      </trkpt>
      <trkpt lat="49.81908" lon="2.53395">
        <ele>57.3</ele>
        <time>2013-04-28T07:09:30Z</time>
      </trkpt>
      <trkpt lat="49.81899" lon="2.53378">
        <ele>57.5</ele>
        <time>2013-04-28T07:09:40Z</time>
      </trkpt>
      <trkpt lat="49.81898" lon="2.53356">
        <ele>57.7</ele>
        <time>2013-04-28T07:09:50Z</time>
      </trkpt>
      <trkpt lat="49.81896" lon="2.53335">
        <ele>57.9</ele>
        <time>2013-04-28T07:10:01Z</time>
      </trkpt>
      <trkpt lat="49.81896" lon="2.53314">
        <ele>57.3</ele>
        <time>2013-04-28T07:10:10Z</time>
      </trkpt>
      <trkpt lat="49.81903" lon="2.53296">
        <ele>55.1</ele>
        <time>2013-04-28T07:10:24Z</time>
      </trkpt>
      <trkpt lat="49.819" lon="2.53275">
        <ele>56.3</ele>
        <time>2013-04-28T07:10:41Z</time>
      </trkpt>
      <trkpt lat="49.81896" lon="2.53254">
        <ele>56.9</ele>
        <time>2013-04-28T07:10:50Z</time>
      </trkpt>
      <trkpt lat="49.819" lon="2.53231">
        <ele>57.5</ele>
        <time>2013-04-28T07:10:58Z</time>
      </trkpt>
      <trkpt lat="49.81899" lon="2.5321">
        <ele>58.1</ele>
        <time>2013-04-28T07:11:07Z</time>
      </trkpt>
      <trkpt lat="49.81896" lon="2.53191">
        <ele>58.8</ele>
        <time>2013-04-28T07:11:17Z</time>
      </trkpt>
      <trkpt lat="49.81882" lon="2.5319">
        <ele>59.3</ele>
        <time>2013-04-28T07:11:24Z</time>
      </trkpt>
      <trkpt lat="49.81882" lon="2.53196">
        <ele>59.7</ele>
        <time>2013-04-28T07:11:29Z</time>
      </trkpt>
      <trkpt lat="49.81886" lon="2.53179">
        <ele>59.7</ele>
        <time>2013-04-28T07:11:30Z</time>
      </trkpt>
      <trkpt lat="49.81893" lon="2.53156">
        <ele>60.8</ele>
        <time>2013-04-28T07:11:45Z</time>
      </trkpt>
      <trkpt lat="49.81896" lon="2.53134">
        <ele>61.2</ele>
        <time>2013-04-28T07:11:51Z</time>
      </trkpt>
      <trkpt lat="49.81888" lon="2.53117">
        <ele>61.9</ele>
        <time>2013-04-28T07:12:00Z</time>
      </trkpt>
      <trkpt lat="49.81878" lon="2.53095">
        <ele>61</ele>
        <time>2013-04-28T07:12:04Z</time>
      </trkpt>
      <trkpt lat="49.81875" lon="2.53078">
        <ele>59.5</ele>
        <time>2013-04-28T07:12:07Z</time>
      </trkpt>
      <trkpt lat="49.81879" lon="2.53077">
        <ele>59</ele>
        <time>2013-04-28T07:12:08Z</time>
      </trkpt>
      <trkpt lat="49.81908" lon="2.53084">
        <ele>58.7</ele>
        <time>2013-04-28T07:12:09Z</time>
      </trkpt>
      <trkpt lat="49.81911" lon="2.53074">
        <ele>55.8</ele>
        <time>2013-04-28T07:12:20Z</time>
      </trkpt>
      <trkpt lat="49.81924" lon="2.53067">
        <ele>54.5</ele>
        <time>2013-04-28T07:12:27Z</time>
      </trkpt>
      <trkpt lat="49.81938" lon="2.53071">
        <ele>53</ele>
        <time>2013-04-28T07:12:38Z</time>
      </trkpt>
      <trkpt lat="49.8195" lon="2.53082">
        <ele>51</ele>
        <time>2013-04-28T07:12:56Z</time>
      </trkpt>
      <trkpt lat="49.81954" lon="2.53087">
        <ele>50</ele>
        <time>2013-04-28T07:13:00Z</time>
      </trkpt>
      <trkpt lat="49.81968" lon="2.53087">
        <ele>49</ele>
        <time>2013-04-28T07:13:06Z</time>
      </trkpt>
      <trkpt lat="49.81975" lon="2.53106">
        <ele>48.7</ele>
        <time>2013-04-28T07:13:18Z</time>
      </trkpt>
      <trkpt lat="49.81987" lon="2.53118">
        <ele>46.5</ele>
        <time>2013-04-28T07:13:43Z</time>
      </trkpt>
      <trkpt lat="49.82002" lon="2.53128">
        <ele>45.9</ele>
        <time>2013-04-28T07:13:50Z</time>
      </trkpt>
      <trkpt lat="49.82013" lon="2.5314">
        <ele>45.4</ele>
        <time>2013-04-28T07:13:57Z</time>
      </trkpt>
      <trkpt lat="49.82026" lon="2.5315">
        <ele>44.6</ele>
        <time>2013-04-28T07:14:08Z</time>
      </trkpt>
      <trkpt lat="49.8204" lon="2.53157">
        <ele>43.9</ele>
        <time>2013-04-28T07:14:18Z</time>
      </trkpt>
      <trkpt lat="49.82054" lon="2.53159">
        <ele>43.4</ele>
        <time>2013-04-28T07:14:26Z</time>
      </trkpt>
      <trkpt lat="49.82065" lon="2.53168">
        <ele>41.3</ele>
        <time>2013-04-28T07:14:41Z</time>
      </trkpt>
      <trkpt lat="49.82075" lon="2.53185">
        <ele>39.5</ele>
        <time>2013-04-28T07:14:56Z</time>
      </trkpt>
      <trkpt lat="49.82085" lon="2.53199">
        <ele>41.7</ele>
        <time>2013-04-28T07:15:06Z</time>
      </trkpt>
      <trkpt lat="49.82097" lon="2.53209">
        <ele>39.3</ele>
        <time>2013-04-28T07:15:15Z</time>
      </trkpt>
      <trkpt lat="49.8211" lon="2.53217">
        <ele>39.9</ele>
        <time>2013-04-28T07:15:24Z</time>
      </trkpt>
      <trkpt lat="49.82123" lon="2.53224">
        <ele>39.2</ele>
        <time>2013-04-28T07:15:34Z</time>
      </trkpt>
      <trkpt lat="49.82133" lon="2.5324">
        <ele>38.6</ele>
        <time>2013-04-28T07:15:44Z</time>
      </trkpt>
      <trkpt lat="49.82145" lon="2.53253">
        <ele>37.9</ele>
        <time>2013-04-28T07:15:54Z</time>
      </trkpt>
      <trkpt lat="49.82157" lon="2.53263">
        <ele>37.3</ele>
        <time>2013-04-28T07:16:04Z</time>
      </trkpt>
      <trkpt lat="49.82168" lon="2.53275">
        <ele>37.9</ele>
        <time>2013-04-28T07:16:16Z</time>
      </trkpt>
      <trkpt lat="49.82179" lon="2.53288">
        <ele>39</ele>
        <time>2013-04-28T07:16:26Z</time>
      </trkpt>
      <trkpt lat="49.82192" lon="2.53297">
        <ele>39.4</ele>
        <time>2013-04-28T07:16:36Z</time>
      </trkpt>
      <trkpt lat="49.82203" lon="2.53309">
        <ele>37.3</ele>
        <time>2013-04-28T07:16:46Z</time>
      </trkpt>
      <trkpt lat="49.82215" lon="2.53321">
        <ele>37.5</ele>
        <time>2013-04-28T07:16:52Z</time>
      </trkpt>
      <trkpt lat="49.8222" lon="2.53341">
        <ele>37.8</ele>
        <time>2013-04-28T07:16:58Z</time>
      </trkpt>
      <trkpt lat="49.82227" lon="2.53359">
        <ele>38.2</ele>
        <time>2013-04-28T07:17:08Z</time>
      </trkpt>
      <trkpt lat="49.82241" lon="2.53361">
        <ele>38.6</ele>
        <time>2013-04-28T07:17:18Z</time>
      </trkpt>
      <trkpt lat="49.82253" lon="2.53372">
        <ele>39.1</ele>
        <time>2013-04-28T07:17:28Z</time>
      </trkpt>
      <trkpt lat="49.82267" lon="2.53379">
        <ele>39.7</ele>
        <time>2013-04-28T07:17:43Z</time>
      </trkpt>
      <trkpt lat="49.82281" lon="2.53379">
        <ele>40.4</ele>
        <time>2013-04-28T07:17:54Z</time>
      </trkpt>
      <trkpt lat="49.82295" lon="2.53386">
        <ele>41.5</ele>
        <time>2013-04-28T07:18:06Z</time>
      </trkpt>
      <trkpt lat="49.82305" lon="2.534">
        <ele>42.5</ele>
        <time>2013-04-28T07:18:16Z</time>
      </trkpt>
      <trkpt lat="49.82318" lon="2.53409">
        <ele>43.7</ele>
        <time>2013-04-28T07:18:28Z</time>
      </trkpt>
      <trkpt lat="49.8233" lon="2.53422">
        <ele>44.4</ele>
        <time>2013-04-28T07:18:36Z</time>
      </trkpt>
      <trkpt lat="49.82343" lon="2.53429">
        <ele>45.3</ele>
        <time>2013-04-28T07:18:45Z</time>
      </trkpt>
      <trkpt lat="49.82357" lon="2.53436">
        <ele>46.5</ele>
        <time>2013-04-28T07:18:57Z</time>
      </trkpt>
      <trkpt lat="49.8237" lon="2.53441">
        <ele>47.3</ele>
        <time>2013-04-28T07:19:06Z</time>
      </trkpt>
      <trkpt lat="49.82384" lon="2.53447">
        <ele>47.9</ele>
        <time>2013-04-28T07:19:14Z</time>
      </trkpt>
      <trkpt lat="49.82398" lon="2.53452">
        <ele>47.1</ele>
        <time>2013-04-28T07:19:23Z</time>
      </trkpt>
      <trkpt lat="49.82409" lon="2.53464">
        <ele>46.1</ele>
        <time>2013-04-28T07:19:34Z</time>
      </trkpt>
      <trkpt lat="49.8242" lon="2.53479">
        <ele>45.1</ele>
        <time>2013-04-28T07:19:45Z</time>
      </trkpt>
      <trkpt lat="49.82433" lon="2.53492">
        <ele>45.5</ele>
        <time>2013-04-28T07:19:52Z</time>
      </trkpt>
      <trkpt lat="49.82444" lon="2.53505">
        <ele>46.2</ele>
        <time>2013-04-28T07:20:00Z</time>
      </trkpt>
      <trkpt lat="49.82449" lon="2.53527">
        <ele>47</ele>
        <time>2013-04-28T07:20:08Z</time>
      </trkpt>
      <trkpt lat="49.82456" lon="2.53548">
        <ele>47.7</ele>
        <time>2013-04-28T07:20:16Z</time>
      </trkpt>
      <trkpt lat="49.82459" lon="2.5357">
        <ele>48.5</ele>
        <time>2013-04-28T07:20:25Z</time>
      </trkpt>
      <trkpt lat="49.82466" lon="2.53603">
        <ele>46.2</ele>
        <time>2013-04-28T07:20:42Z</time>
      </trkpt>
      <trkpt lat="49.82466" lon="2.53603">
        <ele>46.2</ele>
        <time>2013-04-28T07:23:23Z</time>
      </trkpt>
      <trkpt lat="49.8247" lon="2.53616">
        <ele>43.7</ele>
        <time>2013-04-28T07:23:26Z</time>
      </trkpt>
      <trkpt lat="49.82483" lon="2.53608">
        <ele>44.3</ele>
        <time>2013-04-28T07:23:37Z</time>
      </trkpt>
      <trkpt lat="49.82496" lon="2.53602">
        <ele>44.8</ele>
        <time>2013-04-28T07:23:47Z</time>
      </trkpt>
      <trkpt lat="49.82509" lon="2.53594">
        <ele>45.4</ele>
        <time>2013-04-28T07:23:55Z</time>
      </trkpt>
      <trkpt lat="49.82521" lon="2.53605">
        <ele>46.1</ele>
        <time>2013-04-28T07:24:04Z</time>
      </trkpt>
      <trkpt lat="49.82535" lon="2.53605">
        <ele>46.9</ele>
        <time>2013-04-28T07:24:15Z</time>
      </trkpt>
      <trkpt lat="49.82549" lon="2.53605">
        <ele>47.7</ele>
        <time>2013-04-28T07:24:25Z</time>
      </trkpt>
      <trkpt lat="49.82562" lon="2.53595">
        <ele>48.3</ele>
        <time>2013-04-28T07:24:34Z</time>
      </trkpt>
      <trkpt lat="49.82578" lon="2.53597">
        <ele>49.5</ele>
        <time>2013-04-28T07:24:49Z</time>
      </trkpt>
      <trkpt lat="49.82591" lon="2.53611">
        <ele>49.7</ele>
        <time>2013-04-28T07:25:00Z</time>
      </trkpt>
      <trkpt lat="49.826" lon="2.5363">
        <ele>49</ele>
        <time>2013-04-28T07:25:10Z</time>
      </trkpt>
      <trkpt lat="49.82614" lon="2.53637">
        <ele>48.2</ele>
        <time>2013-04-28T07:25:21Z</time>
      </trkpt>
      <trkpt lat="49.82624" lon="2.53652">
        <ele>47.4</ele>
        <time>2013-04-28T07:25:33Z</time>
      </trkpt>
      <trkpt lat="49.82635" lon="2.53668">
        <ele>47.3</ele>
        <time>2013-04-28T07:25:43Z</time>
      </trkpt>
      <trkpt lat="49.82646" lon="2.53682">
        <ele>48</ele>
        <time>2013-04-28T07:25:54Z</time>
      </trkpt>
      <trkpt lat="49.82657" lon="2.53698">
        <ele>48.6</ele>
        <time>2013-04-28T07:26:05Z</time>
      </trkpt>
      <trkpt lat="49.82672" lon="2.53697">
        <ele>49.5</ele>
        <time>2013-04-28T07:26:19Z</time>
      </trkpt>
      <trkpt lat="49.82688" lon="2.53702">
        <ele>50.2</ele>
        <time>2013-04-28T07:26:31Z</time>
      </trkpt>
      <trkpt lat="49.827" lon="2.53714">
        <ele>50.8</ele>
        <time>2013-04-28T07:26:41Z</time>
      </trkpt>
      <trkpt lat="49.82712" lon="2.53725">
        <ele>51.6</ele>
        <time>2013-04-28T07:26:54Z</time>
      </trkpt>
      <trkpt lat="49.82726" lon="2.5373">
        <ele>52.3</ele>
        <time>2013-04-28T07:27:05Z</time>
      </trkpt>
      <trkpt lat="49.8274" lon="2.53734">
        <ele>53.2</ele>
        <time>2013-04-28T07:27:16Z</time>
      </trkpt>
      <trkpt lat="49.82755" lon="2.53736">
        <ele>54</ele>
        <time>2013-04-28T07:27:26Z</time>
      </trkpt>
      <trkpt lat="49.82769" lon="2.53742">
        <ele>54.8</ele>
        <time>2013-04-28T07:27:36Z</time>
      </trkpt>
      <trkpt lat="49.82782" lon="2.53749">
        <ele>55.8</ele>
        <time>2013-04-28T07:27:46Z</time>
      </trkpt>
      <trkpt lat="49.82795" lon="2.53756">
        <ele>56.7</ele>
        <time>2013-04-28T07:27:58Z</time>
      </trkpt>
      <trkpt lat="49.82808" lon="2.53763">
        <ele>56.4</ele>
        <time>2013-04-28T07:28:08Z</time>
      </trkpt>
      <trkpt lat="49.82809" lon="2.53786">
        <ele>56.9</ele>
        <time>2013-04-28T07:28:16Z</time>
      </trkpt>
      <trkpt lat="49.82812" lon="2.53807">
        <ele>57.5</ele>
        <time>2013-04-28T07:28:26Z</time>
      </trkpt>
      <trkpt lat="49.82815" lon="2.53827">
        <ele>58</ele>
        <time>2013-04-28T07:28:34Z</time>
      </trkpt>
      <trkpt lat="49.82823" lon="2.53846">
        <ele>58.6</ele>
        <time>2013-04-28T07:28:43Z</time>
      </trkpt>
      <trkpt lat="49.82827" lon="2.53867">
        <ele>59.1</ele>
        <time>2013-04-28T07:28:53Z</time>
      </trkpt>
      <trkpt lat="49.82827" lon="2.53889">
        <ele>59.5</ele>
        <time>2013-04-28T07:29:04Z</time>
      </trkpt>
      <trkpt lat="49.8283" lon="2.5391">
        <ele>60</ele>
        <time>2013-04-28T07:29:19Z</time>
      </trkpt>
      <trkpt lat="49.82835" lon="2.5393">
        <ele>60.4</ele>
        <time>2013-04-28T07:29:30Z</time>
      </trkpt>
      <trkpt lat="49.82841" lon="2.53949">
        <ele>61</ele>
        <time>2013-04-28T07:29:48Z</time>
      </trkpt>
      <trkpt lat="49.82847" lon="2.53967">
        <ele>61.3</ele>
        <time>2013-04-28T07:29:58Z</time>
      </trkpt>
      <trkpt lat="49.82858" lon="2.53985">
        <ele>61.6</ele>
        <time>2013-04-28T07:30:05Z</time>
      </trkpt>
      <trkpt lat="49.82868" lon="2.54">
        <ele>61.9</ele>
        <time>2013-04-28T07:30:15Z</time>
      </trkpt>
      <trkpt lat="49.82882" lon="2.54011">
        <ele>61.1</ele>
        <time>2013-04-28T07:30:22Z</time>
      </trkpt>
      <trkpt lat="49.8289" lon="2.54028">
        <ele>58.4</ele>
        <time>2013-04-28T07:30:36Z</time>
      </trkpt>
      <trkpt lat="49.82899" lon="2.54045">
        <ele>57.3</ele>
        <time>2013-04-28T07:30:43Z</time>
      </trkpt>
      <trkpt lat="49.82905" lon="2.54065">
        <ele>55.7</ele>
        <time>2013-04-28T07:30:51Z</time>
      </trkpt>
      <trkpt lat="49.82912" lon="2.54084">
        <ele>53.6</ele>
        <time>2013-04-28T07:31:03Z</time>
      </trkpt>
      <trkpt lat="49.82922" lon="2.54099">
        <ele>52.2</ele>
        <time>2013-04-28T07:31:15Z</time>
      </trkpt>
      <trkpt lat="49.82931" lon="2.54116">
        <ele>51.8</ele>
        <time>2013-04-28T07:31:25Z</time>
      </trkpt>
      <trkpt lat="49.82942" lon="2.54131">
        <ele>51.3</ele>
        <time>2013-04-28T07:31:39Z</time>
      </trkpt>
      <trkpt lat="49.82953" lon="2.54147">
        <ele>51.5</ele>
        <time>2013-04-28T07:31:54Z</time>
      </trkpt>
      <trkpt lat="49.8296" lon="2.54166">
        <ele>53.2</ele>
        <time>2013-04-28T07:32:07Z</time>
      </trkpt>
      <trkpt lat="49.82967" lon="2.54186">
        <ele>56.7</ele>
        <time>2013-04-28T07:32:20Z</time>
      </trkpt>
      <trkpt lat="49.82975" lon="2.54203">
        <ele>60</ele>
        <time>2013-04-28T07:32:30Z</time>
      </trkpt>
      <trkpt lat="49.82973" lon="2.54224">
        <ele>67.1</ele>
        <time>2013-04-28T07:32:49Z</time>
      </trkpt>
      <trkpt lat="49.82969" lon="2.54247">
        <ele>69.8</ele>
        <time>2013-04-28T07:32:59Z</time>
      </trkpt>
      <trkpt lat="49.82962" lon="2.54266">
        <ele>72.2</ele>
        <time>2013-04-28T07:33:12Z</time>
      </trkpt>
      <trkpt lat="49.82957" lon="2.54289">
        <ele>72.6</ele>
        <time>2013-04-28T07:33:20Z</time>
      </trkpt>
      <trkpt lat="49.82952" lon="2.5431">
        <ele>73</ele>
        <time>2013-04-28T07:33:29Z</time>
      </trkpt>
      <trkpt lat="49.82951" lon="2.54331">
        <ele>73.5</ele>
        <time>2013-04-28T07:33:39Z</time>
      </trkpt>
      <trkpt lat="49.8295" lon="2.54353">
        <ele>74</ele>
        <time>2013-04-28T07:33:50Z</time>
      </trkpt>
      <trkpt lat="49.82947" lon="2.54374">
        <ele>73.7</ele>
        <time>2013-04-28T07:34:01Z</time>
      </trkpt>
      <trkpt lat="49.82944" lon="2.54397">
        <ele>73.4</ele>
        <time>2013-04-28T07:34:11Z</time>
      </trkpt>
      <trkpt lat="49.82941" lon="2.54419">
        <ele>73.1</ele>
        <time>2013-04-28T07:34:20Z</time>
      </trkpt>
      <trkpt lat="49.82943" lon="2.54439">
        <ele>72.9</ele>
        <time>2013-04-28T07:34:28Z</time>
      </trkpt>
      <trkpt lat="49.82942" lon="2.54461">
        <ele>72.5</ele>
        <time>2013-04-28T07:34:42Z</time>
      </trkpt>
      <trkpt lat="49.82938" lon="2.54482">
        <ele>72.2</ele>
        <time>2013-04-28T07:34:52Z</time>
      </trkpt>
      <trkpt lat="49.82933" lon="2.54502">
        <ele>71.8</ele>
        <time>2013-04-28T07:35:03Z</time>
      </trkpt>
      <trkpt lat="49.82937" lon="2.54523">
        <ele>71.5</ele>
        <time>2013-04-28T07:35:13Z</time>
      </trkpt>
      <trkpt lat="49.82943" lon="2.54544">
        <ele>71.3</ele>
        <time>2013-04-28T07:35:20Z</time>
      </trkpt>
      <trkpt lat="49.8295" lon="2.54562">
        <ele>71</ele>
        <time>2013-04-28T07:35:32Z</time>
      </trkpt>
      <trkpt lat="49.82949" lon="2.54585">
        <ele>71.3</ele>
        <time>2013-04-28T07:35:43Z</time>
      </trkpt>
      <trkpt lat="49.82946" lon="2.54606">
        <ele>71.5</ele>
        <time>2013-04-28T07:35:52Z</time>
      </trkpt>
      <trkpt lat="49.82948" lon="2.54628">
        <ele>71.7</ele>
        <time>2013-04-28T07:36:03Z</time>
      </trkpt>
      <trkpt lat="49.82947" lon="2.54651">
        <ele>71.9</ele>
        <time>2013-04-28T07:36:12Z</time>
      </trkpt>
      <trkpt lat="49.82954" lon="2.54672">
        <ele>72</ele>
        <time>2013-04-28T07:36:20Z</time>
      </trkpt>
      <trkpt lat="49.82956" lon="2.54693">
        <ele>72.3</ele>
        <time>2013-04-28T07:36:31Z</time>
      </trkpt>
      <trkpt lat="49.82956" lon="2.54716">
        <ele>72.5</ele>
        <time>2013-04-28T07:36:42Z</time>
      </trkpt>
      <trkpt lat="49.82954" lon="2.54738">
        <ele>72.7</ele>
        <time>2013-04-28T07:36:51Z</time>
      </trkpt>
      <trkpt lat="49.82956" lon="2.54759">
        <ele>72.9</ele>
        <time>2013-04-28T07:37:02Z</time>
      </trkpt>
      <trkpt lat="49.82956" lon="2.54782">
        <ele>73.1</ele>
        <time>2013-04-28T07:37:13Z</time>
      </trkpt>
      <trkpt lat="49.8296" lon="2.54803">
        <ele>73.4</ele>
        <time>2013-04-28T07:37:24Z</time>
      </trkpt>
      <trkpt lat="49.82957" lon="2.54823">
        <ele>73.5</ele>
        <time>2013-04-28T07:37:32Z</time>
      </trkpt>
      <trkpt lat="49.82967" lon="2.5484">
        <ele>73.7</ele>
        <time>2013-04-28T07:37:39Z</time>
      </trkpt>
      <trkpt lat="49.8297" lon="2.54862">
        <ele>74</ele>
        <time>2013-04-28T07:37:51Z</time>
      </trkpt>
      <trkpt lat="49.8297" lon="2.54883">
        <ele>71.3</ele>
        <time>2013-04-28T07:38:03Z</time>
      </trkpt>
      <trkpt lat="49.82966" lon="2.54905">
        <ele>70.5</ele>
        <time>2013-04-28T07:38:15Z</time>
      </trkpt>
      <trkpt lat="49.82967" lon="2.54926">
        <ele>70</ele>
        <time>2013-04-28T07:38:25Z</time>
      </trkpt>
      <trkpt lat="49.82973" lon="2.54947">
        <ele>69.6</ele>
        <time>2013-04-28T07:38:34Z</time>
      </trkpt>
      <trkpt lat="49.82973" lon="2.54968">
        <ele>68.8</ele>
        <time>2013-04-28T07:38:49Z</time>
      </trkpt>
      <trkpt lat="49.82977" lon="2.54989">
        <ele>68.1</ele>
        <time>2013-04-28T07:39:03Z</time>
      </trkpt>
      <trkpt lat="49.82984" lon="2.55007">
        <ele>68.5</ele>
        <time>2013-04-28T07:39:13Z</time>
      </trkpt>
      <trkpt lat="49.82979" lon="2.55028">
        <ele>69.8</ele>
        <time>2013-04-28T07:39:28Z</time>
      </trkpt>
      <trkpt lat="49.82978" lon="2.5505">
        <ele>69.8</ele>
        <time>2013-04-28T07:39:49Z</time>
      </trkpt>
      <trkpt lat="49.8298" lon="2.55071">
        <ele>68.6</ele>
        <time>2013-04-28T07:40:06Z</time>
      </trkpt>
      <trkpt lat="49.8298" lon="2.55092">
        <ele>69.4</ele>
        <time>2013-04-28T07:40:19Z</time>
      </trkpt>
      <trkpt lat="49.82979" lon="2.55114">
        <ele>70.1</ele>
        <time>2013-04-28T07:40:30Z</time>
      </trkpt>
      <trkpt lat="49.82982" lon="2.55136">
        <ele>70.9</ele>
        <time>2013-04-28T07:40:43Z</time>
      </trkpt>
      <trkpt lat="49.82987" lon="2.55155">
        <ele>71.4</ele>
        <time>2013-04-28T07:40:52Z</time>
      </trkpt>
      <trkpt lat="49.82986" lon="2.5516">
        <ele>71.6</ele>
        <time>2013-04-28T07:40:55Z</time>
      </trkpt>
      <trkpt lat="49.82972" lon="2.55164">
        <ele>72.2</ele>
        <time>2013-04-28T07:41:02Z</time>
      </trkpt>
      <trkpt lat="49.82984" lon="2.55176">
        <ele>74.8</ele>
        <time>2013-04-28T07:41:13Z</time>
      </trkpt>
      <trkpt lat="49.82982" lon="2.55185">
        <ele>75.7</ele>
        <time>2013-04-28T07:41:18Z</time>
      </trkpt>
      <trkpt lat="49.82978" lon="2.55179">
        <ele>72.4</ele>
        <time>2013-04-28T07:41:26Z</time>
      </trkpt>
      <trkpt lat="49.82977" lon="2.5518">
        <ele>71.5</ele>
        <time>2013-04-28T07:41:28Z</time>
      </trkpt>
      <trkpt lat="49.82982" lon="2.55201">
        <ele>67.1</ele>
        <time>2013-04-28T07:41:37Z</time>
      </trkpt>
      <trkpt lat="49.82982" lon="2.55222">
        <ele>67.5</ele>
        <time>2013-04-28T07:41:48Z</time>
      </trkpt>
      <trkpt lat="49.82983" lon="2.55243">
        <ele>68</ele>
        <time>2013-04-28T07:42:01Z</time>
      </trkpt>
      <trkpt lat="49.82983" lon="2.55264">
        <ele>68.5</ele>
        <time>2013-04-28T07:42:14Z</time>
      </trkpt>
      <trkpt lat="49.82982" lon="2.55286">
        <ele>69</ele>
        <time>2013-04-28T07:42:26Z</time>
      </trkpt>
      <trkpt lat="49.82984" lon="2.55307">
        <ele>69.5</ele>
        <time>2013-04-28T07:42:38Z</time>
      </trkpt>
      <trkpt lat="49.82982" lon="2.55329">
        <ele>69.9</ele>
        <time>2013-04-28T07:42:49Z</time>
      </trkpt>
      <trkpt lat="49.8298" lon="2.55351">
        <ele>69.3</ele>
        <time>2013-04-28T07:43:02Z</time>
      </trkpt>
      <trkpt lat="49.82981" lon="2.55367">
        <ele>68.4</ele>
        <time>2013-04-28T07:43:16Z</time>
      </trkpt>
      <trkpt lat="49.82991" lon="2.55383">
        <ele>67.5</ele>
        <time>2013-04-28T07:43:29Z</time>
      </trkpt>
      <trkpt lat="49.83" lon="2.55399">
        <ele>67.1</ele>
        <time>2013-04-28T07:43:40Z</time>
      </trkpt>
      <trkpt lat="49.83011" lon="2.55412">
        <ele>67.5</ele>
        <time>2013-04-28T07:43:51Z</time>
      </trkpt>
      <trkpt lat="49.83022" lon="2.55424">
        <ele>67.9</ele>
        <time>2013-04-28T07:44:01Z</time>
      </trkpt>
      <trkpt lat="49.83034" lon="2.55436">
        <ele>68.1</ele>
        <time>2013-04-28T07:44:09Z</time>
      </trkpt>
      <trkpt lat="49.83046" lon="2.55444">
        <ele>68.4</ele>
        <time>2013-04-28T07:44:18Z</time>
      </trkpt>
      <trkpt lat="49.83059" lon="2.55455">
        <ele>68.7</ele>
        <time>2013-04-28T07:44:27Z</time>
      </trkpt>
      <trkpt lat="49.83069" lon="2.55472">
        <ele>69</ele>
        <time>2013-04-28T07:44:36Z</time>
      </trkpt>
      <trkpt lat="49.83076" lon="2.55491">
        <ele>69.4</ele>
        <time>2013-04-28T07:44:47Z</time>
      </trkpt>
      <trkpt lat="49.83088" lon="2.55502">
        <ele>70</ele>
        <time>2013-04-28T07:45:04Z</time>
      </trkpt>
      <trkpt lat="49.831" lon="2.55515">
        <ele>71.1</ele>
        <time>2013-04-28T07:45:14Z</time>
      </trkpt>
      <trkpt lat="49.83111" lon="2.55529">
        <ele>72.2</ele>
        <time>2013-04-28T07:45:24Z</time>
      </trkpt>
      <trkpt lat="49.83124" lon="2.55538">
        <ele>73.4</ele>
        <time>2013-04-28T07:45:36Z</time>
      </trkpt>
      <trkpt lat="49.83137" lon="2.55547">
        <ele>74.6</ele>
        <time>2013-04-28T07:45:46Z</time>
      </trkpt>
      <trkpt lat="49.83149" lon="2.5556">
        <ele>77.7</ele>
        <time>2013-04-28T07:45:55Z</time>
      </trkpt>
      <trkpt lat="49.83163" lon="2.55569">
        <ele>78.7</ele>
        <time>2013-04-28T07:46:03Z</time>
      </trkpt>
      <trkpt lat="49.83173" lon="2.55583">
        <ele>78.3</ele>
        <time>2013-04-28T07:46:13Z</time>
      </trkpt>
      <trkpt lat="49.83186" lon="2.55593">
        <ele>78</ele>
        <time>2013-04-28T07:46:22Z</time>
      </trkpt>
      <trkpt lat="49.83196" lon="2.55608">
        <ele>79.1</ele>
        <time>2013-04-28T07:46:32Z</time>
      </trkpt>
      <trkpt lat="49.83207" lon="2.55622">
        <ele>80.4</ele>
        <time>2013-04-28T07:46:41Z</time>
      </trkpt>
      <trkpt lat="49.83217" lon="2.55639">
        <ele>80.9</ele>
        <time>2013-04-28T07:46:54Z</time>
      </trkpt>
      <trkpt lat="49.83228" lon="2.55651">
        <ele>80.6</ele>
        <time>2013-04-28T07:47:03Z</time>
      </trkpt>
      <trkpt lat="49.8324" lon="2.55664">
        <ele>80.2</ele>
        <time>2013-04-28T07:47:13Z</time>
      </trkpt>
      <trkpt lat="49.83248" lon="2.5568">
        <ele>79.8</ele>
        <time>2013-04-28T07:47:22Z</time>
      </trkpt>
      <trkpt lat="49.83257" lon="2.55697">
        <ele>79.4</ele>
        <time>2013-04-28T07:47:32Z</time>
      </trkpt>
      <trkpt lat="49.83266" lon="2.55714">
        <ele>78.9</ele>
        <time>2013-04-28T07:47:44Z</time>
      </trkpt>
      <trkpt lat="49.83274" lon="2.55733">
        <ele>78.5</ele>
        <time>2013-04-28T07:47:54Z</time>
      </trkpt>
      <trkpt lat="49.83281" lon="2.55752">
        <ele>78.3</ele>
        <time>2013-04-28T07:48:08Z</time>
      </trkpt>
      <trkpt lat="49.83289" lon="2.55771">
        <ele>79.6</ele>
        <time>2013-04-28T07:48:18Z</time>
      </trkpt>
      <trkpt lat="49.83298" lon="2.55789">
        <ele>81.3</ele>
        <time>2013-04-28T07:48:32Z</time>
      </trkpt>
      <trkpt lat="49.83305" lon="2.55809">
        <ele>82.1</ele>
        <time>2013-04-28T07:48:40Z</time>
      </trkpt>
      <trkpt lat="49.83311" lon="2.55828">
        <ele>83.1</ele>
        <time>2013-04-28T07:48:50Z</time>
      </trkpt>
      <trkpt lat="49.83321" lon="2.55845">
        <ele>83.9</ele>
        <time>2013-04-28T07:49:00Z</time>
      </trkpt>
      <trkpt lat="49.8333" lon="2.55862">
        <ele>85</ele>
        <time>2013-04-28T07:49:09Z</time>
      </trkpt>
      <trkpt lat="49.83338" lon="2.55879">
        <ele>86</ele>
        <time>2013-04-28T07:49:19Z</time>
      </trkpt>
      <trkpt lat="49.8335" lon="2.5589">
        <ele>86.9</ele>
        <time>2013-04-28T07:49:26Z</time>
      </trkpt>
      <trkpt lat="49.83363" lon="2.55901">
        <ele>87.4</ele>
        <time>2013-04-28T07:49:37Z</time>
      </trkpt>
      <trkpt lat="49.83371" lon="2.55919">
        <ele>87.7</ele>
        <time>2013-04-28T07:49:45Z</time>
      </trkpt>
      <trkpt lat="49.83381" lon="2.55934">
        <ele>88.2</ele>
        <time>2013-04-28T07:49:55Z</time>
      </trkpt>
      <trkpt lat="49.83392" lon="2.5595">
        <ele>88.5</ele>
        <time>2013-04-28T07:50:05Z</time>
      </trkpt>
      <trkpt lat="49.83401" lon="2.55967">
        <ele>89</ele>
        <time>2013-04-28T07:50:15Z</time>
      </trkpt>
      <trkpt lat="49.8341" lon="2.55984">
        <ele>89.5</ele>
        <time>2013-04-28T07:50:26Z</time>
      </trkpt>
      <trkpt lat="49.83424" lon="2.55982">
        <ele>90</ele>
        <time>2013-04-28T07:50:38Z</time>
      </trkpt>
      <trkpt lat="49.83437" lon="2.55971">
        <ele>89.5</ele>
        <time>2013-04-28T07:50:51Z</time>
      </trkpt>
      <trkpt lat="49.8345" lon="2.55965">
        <ele>89</ele>
        <time>2013-04-28T07:51:02Z</time>
      </trkpt>
      <trkpt lat="49.83464" lon="2.55965">
        <ele>88.5</ele>
        <time>2013-04-28T07:51:11Z</time>
      </trkpt>
      <trkpt lat="49.83476" lon="2.55952">
        <ele>88.1</ele>
        <time>2013-04-28T07:51:20Z</time>
      </trkpt>
      <trkpt lat="49.83489" lon="2.55945">
        <ele>87.7</ele>
        <time>2013-04-28T07:51:31Z</time>
      </trkpt>
      <trkpt lat="49.83502" lon="2.55935">
        <ele>87.2</ele>
        <time>2013-04-28T07:51:41Z</time>
      </trkpt>
      <trkpt lat="49.83514" lon="2.55925">
        <ele>87.3</ele>
        <time>2013-04-28T07:51:53Z</time>
      </trkpt>
      <trkpt lat="49.83528" lon="2.5592">
        <ele>87.7</ele>
        <time>2013-04-28T07:52:04Z</time>
      </trkpt>
      <trkpt lat="49.83541" lon="2.55911">
        <ele>88.1</ele>
        <time>2013-04-28T07:52:15Z</time>
      </trkpt>
      <trkpt lat="49.83554" lon="2.55904">
        <ele>88.5</ele>
        <time>2013-04-28T07:52:26Z</time>
      </trkpt>
      <trkpt lat="49.83568" lon="2.55897">
        <ele>88.9</ele>
        <time>2013-04-28T07:52:37Z</time>
      </trkpt>
      <trkpt lat="49.83581" lon="2.55886">
        <ele>89.2</ele>
        <time>2013-04-28T07:52:45Z</time>
      </trkpt>
      <trkpt lat="49.83594" lon="2.55877">
        <ele>89.6</ele>
        <time>2013-04-28T07:52:55Z</time>
      </trkpt>
      <trkpt lat="49.83602" lon="2.55858">
        <ele>89.9</ele>
        <time>2013-04-28T07:53:03Z</time>
      </trkpt>
      <trkpt lat="49.83614" lon="2.55846">
        <ele>90.3</ele>
        <time>2013-04-28T07:53:13Z</time>
      </trkpt>
      <trkpt lat="49.83626" lon="2.55837">
        <ele>90.7</ele>
        <time>2013-04-28T07:53:22Z</time>
      </trkpt>
      <trkpt lat="49.83638" lon="2.55828">
        <ele>90.8</ele>
        <time>2013-04-28T07:53:32Z</time>
      </trkpt>
      <trkpt lat="49.83634" lon="2.55851">
        <ele>89</ele>
        <time>2013-04-28T07:53:43Z</time>
      </trkpt>
      <trkpt lat="49.83634" lon="2.5586">
        <ele>90.5</ele>
        <time>2013-04-28T07:53:50Z</time>
      </trkpt>
      <trkpt lat="49.83637" lon="2.5588">
        <ele>95.9</ele>
        <time>2013-04-28T07:53:59Z</time>
      </trkpt>
      <trkpt lat="49.83642" lon="2.55904">
        <ele>96</ele>
        <time>2013-04-28T07:54:05Z</time>
      </trkpt>
      <trkpt lat="49.83646" lon="2.55924">
        <ele>96</ele>
        <time>2013-04-28T07:54:11Z</time>
      </trkpt>
      <trkpt lat="49.83653" lon="2.55935">
        <ele>95.8</ele>
        <time>2013-04-28T07:54:16Z</time>
      </trkpt>
      <trkpt lat="49.83644" lon="2.55952">
        <ele>95</ele>
        <time>2013-04-28T07:54:31Z</time>
      </trkpt>
      <trkpt lat="49.83642" lon="2.55974">
        <ele>94.3</ele>
        <time>2013-04-28T07:54:43Z</time>
      </trkpt>
      <trkpt lat="49.83634" lon="2.55985">
        <ele>93.7</ele>
        <time>2013-04-28T07:54:53Z</time>
      </trkpt>
      <trkpt lat="49.83634" lon="2.56007">
        <ele>93.1</ele>
        <time>2013-04-28T07:55:00Z</time>
      </trkpt>
      <trkpt lat="49.83637" lon="2.56031">
        <ele>92.7</ele>
        <time>2013-04-28T07:55:07Z</time>
      </trkpt>
      <trkpt lat="49.83639" lon="2.56052">
        <ele>93.4</ele>
        <time>2013-04-28T07:55:21Z</time>
      </trkpt>
      <trkpt lat="49.83639" lon="2.56075">
        <ele>97.2</ele>
        <time>2013-04-28T07:55:31Z</time>
      </trkpt>
      <trkpt lat="49.83638" lon="2.56096">
        <ele>98.1</ele>
        <time>2013-04-28T07:55:41Z</time>
      </trkpt>
      <trkpt lat="49.83651" lon="2.56104">
        <ele>99.3</ele>
        <time>2013-04-28T07:55:55Z</time>
      </trkpt>
      <trkpt lat="49.83664" lon="2.56113">
        <ele>100.8</ele>
        <time>2013-04-28T07:56:04Z</time>
      </trkpt>
      <trkpt lat="49.83677" lon="2.56122">
        <ele>105</ele>
        <time>2013-04-28T07:56:15Z</time>
      </trkpt>
      <trkpt lat="49.83689" lon="2.56132">
        <ele>102.5</ele>
        <time>2013-04-28T07:56:24Z</time>
      </trkpt>
      <trkpt lat="49.83701" lon="2.56144">
        <ele>100</ele>
        <time>2013-04-28T07:56:32Z</time>
      </trkpt>
      <trkpt lat="49.83709" lon="2.56162">
        <ele>98.3</ele>
        <time>2013-04-28T07:56:48Z</time>
      </trkpt>
      <trkpt lat="49.83722" lon="2.56168">
        <ele>97.4</ele>
        <time>2013-04-28T07:56:56Z</time>
      </trkpt>
      <trkpt lat="49.83733" lon="2.56182">
        <ele>100.9</ele>
        <time>2013-04-28T07:57:07Z</time>
      </trkpt>
      <trkpt lat="49.83747" lon="2.56184">
        <ele>102.8</ele>
        <time>2013-04-28T07:57:12Z</time>
      </trkpt>
      <trkpt lat="49.83759" lon="2.56194">
        <ele>101.6</ele>
        <time>2013-04-28T07:57:23Z</time>
      </trkpt>
      <trkpt lat="49.83771" lon="2.56206">
        <ele>100.5</ele>
        <time>2013-04-28T07:57:33Z</time>
      </trkpt>
      <trkpt lat="49.83783" lon="2.56217">
        <ele>99.4</ele>
        <time>2013-04-28T07:57:45Z</time>
      </trkpt>
      <trkpt lat="49.83794" lon="2.56229">
        <ele>98.5</ele>
        <time>2013-04-28T07:57:55Z</time>
      </trkpt>
      <trkpt lat="49.83804" lon="2.56242">
        <ele>97.4</ele>
        <time>2013-04-28T07:58:07Z</time>
      </trkpt>
      <trkpt lat="49.83817" lon="2.56254">
        <ele>97.6</ele>
        <time>2013-04-28T07:58:18Z</time>
      </trkpt>
      <trkpt lat="49.83828" lon="2.56268">
        <ele>98.6</ele>
        <time>2013-04-28T07:58:27Z</time>
      </trkpt>
      <trkpt lat="49.8384" lon="2.56281">
        <ele>99.6</ele>
        <time>2013-04-28T07:58:38Z</time>
      </trkpt>
      <trkpt lat="49.83853" lon="2.56289">
        <ele>100.7</ele>
        <time>2013-04-28T07:58:48Z</time>
      </trkpt>
      <trkpt lat="49.83865" lon="2.56303">
        <ele>99.7</ele>
        <time>2013-04-28T07:58:55Z</time>
      </trkpt>
      <trkpt lat="49.83878" lon="2.56312">
        <ele>97.7</ele>
        <time>2013-04-28T07:59:04Z</time>
      </trkpt>
      <trkpt lat="49.83889" lon="2.56325">
        <ele>96.4</ele>
        <time>2013-04-28T07:59:14Z</time>
      </trkpt>
      <trkpt lat="49.83898" lon="2.56343">
        <ele>94.8</ele>
        <time>2013-04-28T07:59:26Z</time>
      </trkpt>
      <trkpt lat="49.83908" lon="2.5636">
        <ele>92.7</ele>
        <time>2013-04-28T07:59:38Z</time>
      </trkpt>
      <trkpt lat="49.8392" lon="2.56372">
        <ele>90.1</ele>
        <time>2013-04-28T07:59:49Z</time>
      </trkpt>
      <trkpt lat="49.83929" lon="2.56389">
        <ele>91</ele>
        <time>2013-04-28T08:00:00Z</time>
      </trkpt>
      <trkpt lat="49.83941" lon="2.564">
        <ele>91.6</ele>
        <time>2013-04-28T08:00:08Z</time>
      </trkpt>
      <trkpt lat="49.83954" lon="2.56412">
        <ele>93.4</ele>
        <time>2013-04-28T08:00:21Z</time>
      </trkpt>
      <trkpt lat="49.83966" lon="2.56425">
        <ele>95.3</ele>
        <time>2013-04-28T08:00:32Z</time>
      </trkpt>
      <trkpt lat="49.83978" lon="2.56437">
        <ele>95.5</ele>
        <time>2013-04-28T08:00:41Z</time>
      </trkpt>
      <trkpt lat="49.83988" lon="2.56451">
        <ele>94.5</ele>
        <time>2013-04-28T08:00:50Z</time>
      </trkpt>
      <trkpt lat="49.83999" lon="2.56467">
        <ele>93.3</ele>
        <time>2013-04-28T08:01:01Z</time>
      </trkpt>
      <trkpt lat="49.84008" lon="2.56482">
        <ele>87.6</ele>
        <time>2013-04-28T08:01:12Z</time>
      </trkpt>
      <trkpt lat="49.84019" lon="2.56497">
        <ele>85</ele>
        <time>2013-04-28T08:01:24Z</time>
      </trkpt>
      <trkpt lat="49.84029" lon="2.56511">
        <ele>82.6</ele>
        <time>2013-04-28T08:01:34Z</time>
      </trkpt>
      <trkpt lat="49.84042" lon="2.56525">
        <ele>79.8</ele>
        <time>2013-04-28T08:01:46Z</time>
      </trkpt>
      <trkpt lat="49.84054" lon="2.56535">
        <ele>82.4</ele>
        <time>2013-04-28T08:01:54Z</time>
      </trkpt>
      <trkpt lat="49.84065" lon="2.56548">
        <ele>86</ele>
        <time>2013-04-28T08:02:05Z</time>
      </trkpt>
      <trkpt lat="49.84079" lon="2.56558">
        <ele>86.7</ele>
        <time>2013-04-28T08:02:14Z</time>
      </trkpt>
      <trkpt lat="49.84083" lon="2.56563">
        <ele>86.9</ele>
        <time>2013-04-28T08:02:17Z</time>
      </trkpt>
      <trkpt lat="49.84079" lon="2.56576">
        <ele>87.4</ele>
        <time>2013-04-28T08:02:24Z</time>
      </trkpt>
      <trkpt lat="49.84091" lon="2.56587">
        <ele>88.1</ele>
        <time>2013-04-28T08:02:33Z</time>
      </trkpt>
      <trkpt lat="49.84104" lon="2.56598">
        <ele>88.8</ele>
        <time>2013-04-28T08:02:42Z</time>
      </trkpt>
      <trkpt lat="49.84116" lon="2.56609">
        <ele>89.5</ele>
        <time>2013-04-28T08:02:52Z</time>
      </trkpt>
      <trkpt lat="49.84128" lon="2.56621">
        <ele>89.5</ele>
        <time>2013-04-28T08:02:59Z</time>
      </trkpt>
      <trkpt lat="49.84141" lon="2.56632">
        <ele>87.7</ele>
        <time>2013-04-28T08:03:09Z</time>
      </trkpt>
      <trkpt lat="49.84154" lon="2.56642">
        <ele>89.1</ele>
        <time>2013-04-28T08:03:17Z</time>
      </trkpt>
      <trkpt lat="49.84167" lon="2.56654">
        <ele>89.7</ele>
        <time>2013-04-28T08:03:26Z</time>
      </trkpt>
      <trkpt lat="49.8418" lon="2.56666">
        <ele>89.1</ele>
        <time>2013-04-28T08:03:36Z</time>
      </trkpt>
      <trkpt lat="49.84191" lon="2.56678">
        <ele>88.5</ele>
        <time>2013-04-28T08:03:46Z</time>
      </trkpt>
      <trkpt lat="49.84203" lon="2.5669">
        <ele>88</ele>
        <time>2013-04-28T08:03:55Z</time>
      </trkpt>
      <trkpt lat="49.84213" lon="2.56704">
        <ele>87.4</ele>
        <time>2013-04-28T08:04:05Z</time>
      </trkpt>
      <trkpt lat="49.84225" lon="2.56716">
        <ele>86.8</ele>
        <time>2013-04-28T08:04:16Z</time>
      </trkpt>
      <trkpt lat="49.84234" lon="2.56733">
        <ele>86.1</ele>
        <time>2013-04-28T08:04:28Z</time>
      </trkpt>
      <trkpt lat="49.84245" lon="2.56748">
        <ele>86.4</ele>
        <time>2013-04-28T08:04:38Z</time>
      </trkpt>
      <trkpt lat="49.84259" lon="2.56757">
        <ele>86.8</ele>
        <time>2013-04-28T08:04:46Z</time>
      </trkpt>
      <trkpt lat="49.84272" lon="2.56769">
        <ele>87.4</ele>
        <time>2013-04-28T08:04:58Z</time>
      </trkpt>
      <trkpt lat="49.84284" lon="2.56783">
        <ele>87.9</ele>
        <time>2013-04-28T08:05:07Z</time>
      </trkpt>
      <trkpt lat="49.84297" lon="2.56793">
        <ele>88.3</ele>
        <time>2013-04-28T08:05:15Z</time>
      </trkpt>
      <trkpt lat="49.8431" lon="2.56804">
        <ele>88.9</ele>
        <time>2013-04-28T08:05:28Z</time>
      </trkpt>
      <trkpt lat="49.84321" lon="2.56817">
        <ele>86.2</ele>
        <time>2013-04-28T08:05:36Z</time>
      </trkpt>
      <trkpt lat="49.84334" lon="2.56832">
        <ele>88.2</ele>
        <time>2013-04-28T08:05:48Z</time>
      </trkpt>
      <trkpt lat="49.84347" lon="2.56834">
        <ele>89.3</ele>
        <time>2013-04-28T08:05:53Z</time>
      </trkpt>
      <trkpt lat="49.84362" lon="2.56835">
        <ele>91.1</ele>
        <time>2013-04-28T08:06:01Z</time>
      </trkpt>
      <trkpt lat="49.84376" lon="2.56841">
        <ele>92.9</ele>
        <time>2013-04-28T08:06:09Z</time>
      </trkpt>
      <trkpt lat="49.8439" lon="2.56841">
        <ele>92.1</ele>
        <time>2013-04-28T08:06:21Z</time>
      </trkpt>
      <trkpt lat="49.84404" lon="2.56839">
        <ele>91.3</ele>
        <time>2013-04-28T08:06:32Z</time>
      </trkpt>
      <trkpt lat="49.84416" lon="2.56828">
        <ele>90.6</ele>
        <time>2013-04-28T08:06:41Z</time>
      </trkpt>
      <trkpt lat="49.84429" lon="2.56823">
        <ele>90.1</ele>
        <time>2013-04-28T08:06:52Z</time>
      </trkpt>
      <trkpt lat="49.84443" lon="2.56814">
        <ele>90.7</ele>
        <time>2013-04-28T08:07:03Z</time>
      </trkpt>
      <trkpt lat="49.84455" lon="2.56802">
        <ele>91.3</ele>
        <time>2013-04-28T08:07:14Z</time>
      </trkpt>
      <trkpt lat="49.84467" lon="2.56791">
        <ele>91.8</ele>
        <time>2013-04-28T08:07:24Z</time>
      </trkpt>
      <trkpt lat="49.84481" lon="2.56787">
        <ele>92.4</ele>
        <time>2013-04-28T08:07:34Z</time>
      </trkpt>
      <trkpt lat="49.84492" lon="2.56773">
        <ele>92.8</ele>
        <time>2013-04-28T08:07:43Z</time>
      </trkpt>
      <trkpt lat="49.84508" lon="2.56761">
        <ele>96.5</ele>
        <time>2013-04-28T08:08:05Z</time>
      </trkpt>
      <trkpt lat="49.84508" lon="2.56761">
        <ele>96.5</ele>
        <time>2013-04-28T08:08:41Z</time>
      </trkpt>
      <trkpt lat="49.84513" lon="2.5676">
        <ele>98.9</ele>
        <time>2013-04-28T08:08:43Z</time>
      </trkpt>
      <trkpt lat="49.84504" lon="2.56741">
        <ele>98.6</ele>
        <time>2013-04-28T08:08:46Z</time>
      </trkpt>
      <trkpt lat="49.84492" lon="2.5672">
        <ele>98.5</ele>
        <time>2013-04-28T08:08:47Z</time>
      </trkpt>
      <trkpt lat="49.84475" lon="2.56708">
        <ele>97.8</ele>
        <time>2013-04-28T08:08:54Z</time>
      </trkpt>
      <trkpt lat="49.84499" lon="2.56695">
        <ele>97.8</ele>
        <time>2013-04-28T08:08:55Z</time>
      </trkpt>
      <trkpt lat="49.84498" lon="2.56694">
        <ele>97.7</ele>
        <time>2013-04-28T08:08:56Z</time>
      </trkpt>
      <trkpt lat="49.84488" lon="2.56706">
        <ele>97.6</ele>
        <time>2013-04-28T08:08:57Z</time>
      </trkpt>
      <trkpt lat="49.84505" lon="2.56776">
        <ele>100.2</ele>
        <time>2013-04-28T08:09:04Z</time>
      </trkpt>
      <trkpt lat="49.84505" lon="2.56776">
        <ele>100.2</ele>
        <time>2013-04-28T08:13:04Z</time>
      </trkpt>
      <trkpt lat="49.84506" lon="2.56801">
        <ele>103.3</ele>
        <time>2013-04-28T08:13:06Z</time>
      </trkpt>
      <trkpt lat="49.84505" lon="2.56823">
        <ele>102.9</ele>
        <time>2013-04-28T08:13:16Z</time>
      </trkpt>
      <trkpt lat="49.84501" lon="2.56844">
        <ele>102.5</ele>
        <time>2013-04-28T08:13:25Z</time>
      </trkpt>
      <trkpt lat="49.84499" lon="2.56866">
        <ele>102</ele>
        <time>2013-04-28T08:13:36Z</time>
      </trkpt>
      <trkpt lat="49.84498" lon="2.56888">
        <ele>101.5</ele>
        <time>2013-04-28T08:13:48Z</time>
      </trkpt>
      <trkpt lat="49.84496" lon="2.56908">
        <ele>101</ele>
        <time>2013-04-28T08:13:59Z</time>
      </trkpt>
      <trkpt lat="49.84494" lon="2.5693">
        <ele>100.6</ele>
        <time>2013-04-28T08:14:09Z</time>
      </trkpt>
      <trkpt lat="49.84494" lon="2.56951">
        <ele>100.1</ele>
        <time>2013-04-28T08:14:19Z</time>
      </trkpt>
      <trkpt lat="49.84492" lon="2.56972">
        <ele>99.7</ele>
        <time>2013-04-28T08:14:29Z</time>
      </trkpt>
      <trkpt lat="49.8449" lon="2.56993">
        <ele>99.2</ele>
        <time>2013-04-28T08:14:40Z</time>
      </trkpt>
      <trkpt lat="49.84488" lon="2.57017">
        <ele>100.3</ele>
        <time>2013-04-28T08:14:50Z</time>
      </trkpt>
      <trkpt lat="49.84486" lon="2.57039">
        <ele>102.8</ele>
        <time>2013-04-28T08:14:59Z</time>
      </trkpt>
      <trkpt lat="49.84483" lon="2.5706">
        <ele>105.4</ele>
        <time>2013-04-28T08:15:09Z</time>
      </trkpt>
      <trkpt lat="49.84481" lon="2.57083">
        <ele>104.6</ele>
        <time>2013-04-28T08:15:17Z</time>
      </trkpt>
      <trkpt lat="49.84478" lon="2.57104">
        <ele>102.5</ele>
        <time>2013-04-28T08:15:26Z</time>
      </trkpt>
      <trkpt lat="49.84473" lon="2.57125">
        <ele>101</ele>
        <time>2013-04-28T08:15:38Z</time>
      </trkpt>
      <trkpt lat="49.84468" lon="2.57146">
        <ele>100.1</ele>
        <time>2013-04-28T08:15:46Z</time>
      </trkpt>
      <trkpt lat="49.84465" lon="2.57168">
        <ele>98.9</ele>
        <time>2013-04-28T08:15:58Z</time>
      </trkpt>
      <trkpt lat="49.84464" lon="2.57189">
        <ele>97.6</ele>
        <time>2013-04-28T08:16:08Z</time>
      </trkpt>
      <trkpt lat="49.84462" lon="2.5721">
        <ele>95</ele>
        <time>2013-04-28T08:16:19Z</time>
      </trkpt>
      <trkpt lat="49.84459" lon="2.57233">
        <ele>93.2</ele>
        <time>2013-04-28T08:16:28Z</time>
      </trkpt>
      <trkpt lat="49.84456" lon="2.57253">
        <ele>93.9</ele>
        <time>2013-04-28T08:16:37Z</time>
      </trkpt>
      <trkpt lat="49.84455" lon="2.57274">
        <ele>93</ele>
        <time>2013-04-28T08:16:48Z</time>
      </trkpt>
      <trkpt lat="49.84455" lon="2.57298">
        <ele>93.2</ele>
        <time>2013-04-28T08:16:57Z</time>
      </trkpt>
      <trkpt lat="49.84454" lon="2.57319">
        <ele>95</ele>
        <time>2013-04-28T08:17:04Z</time>
      </trkpt>
      <trkpt lat="49.84454" lon="2.57342">
        <ele>95.8</ele>
        <time>2013-04-28T08:17:10Z</time>
      </trkpt>
      <trkpt lat="49.84452" lon="2.57365">
        <ele>95.1</ele>
        <time>2013-04-28T08:17:19Z</time>
      </trkpt>
      <trkpt lat="49.84451" lon="2.57386">
        <ele>94.4</ele>
        <time>2013-04-28T08:17:28Z</time>
      </trkpt>
      <trkpt lat="49.84449" lon="2.57409">
        <ele>93.6</ele>
        <time>2013-04-28T08:17:39Z</time>
      </trkpt>
      <trkpt lat="49.84447" lon="2.5743">
        <ele>92.8</ele>
        <time>2013-04-28T08:17:49Z</time>
      </trkpt>
      <trkpt lat="49.84442" lon="2.57451">
        <ele>93.1</ele>
        <time>2013-04-28T08:18:03Z</time>
      </trkpt>
      <trkpt lat="49.84448" lon="2.57472">
        <ele>95</ele>
        <time>2013-04-28T08:18:09Z</time>
      </trkpt>
      <trkpt lat="49.84442" lon="2.57492">
        <ele>93.3</ele>
        <time>2013-04-28T08:18:21Z</time>
      </trkpt>
      <trkpt lat="49.8444" lon="2.57513">
        <ele>92.3</ele>
        <time>2013-04-28T08:18:31Z</time>
      </trkpt>
      <trkpt lat="49.84439" lon="2.57537">
        <ele>93.4</ele>
        <time>2013-04-28T08:18:41Z</time>
      </trkpt>
      <trkpt lat="49.84438" lon="2.57559">
        <ele>94.6</ele>
        <time>2013-04-28T08:18:49Z</time>
      </trkpt>
      <trkpt lat="49.84438" lon="2.57581">
        <ele>94.8</ele>
        <time>2013-04-28T08:18:59Z</time>
      </trkpt>
      <trkpt lat="49.84437" lon="2.57591">
        <ele>94.5</ele>
        <time>2013-04-28T08:19:08Z</time>
      </trkpt>
      <trkpt lat="49.84451" lon="2.57595">
        <ele>94.2</ele>
        <time>2013-04-28T08:19:17Z</time>
      </trkpt>
      <trkpt lat="49.84464" lon="2.57599">
        <ele>93.9</ele>
        <time>2013-04-28T08:19:29Z</time>
      </trkpt>
      <trkpt lat="49.84478" lon="2.57601">
        <ele>93.6</ele>
        <time>2013-04-28T08:19:39Z</time>
      </trkpt>
      <trkpt lat="49.84492" lon="2.57606">
        <ele>93.3</ele>
        <time>2013-04-28T08:19:49Z</time>
      </trkpt>
      <trkpt lat="49.84506" lon="2.57611">
        <ele>93</ele>
        <time>2013-04-28T08:19:58Z</time>
      </trkpt>
      <trkpt lat="49.84519" lon="2.57617">
        <ele>92.7</ele>
        <time>2013-04-28T08:20:07Z</time>
      </trkpt>
      <trkpt lat="49.84533" lon="2.57622">
        <ele>92.5</ele>
        <time>2013-04-28T08:20:15Z</time>
      </trkpt>
      <trkpt lat="49.84545" lon="2.57634">
        <ele>92.2</ele>
        <time>2013-04-28T08:20:24Z</time>
      </trkpt>
      <trkpt lat="49.84544" lon="2.57655">
        <ele>91.9</ele>
        <time>2013-04-28T08:20:34Z</time>
      </trkpt>
      <trkpt lat="49.84535" lon="2.57671">
        <ele>91.6</ele>
        <time>2013-04-28T08:20:44Z</time>
      </trkpt>
      <trkpt lat="49.84526" lon="2.57688">
        <ele>91.3</ele>
        <time>2013-04-28T08:20:54Z</time>
      </trkpt>
      <trkpt lat="49.84516" lon="2.57701">
        <ele>91</ele>
        <time>2013-04-28T08:21:02Z</time>
      </trkpt>
      <trkpt lat="49.84505" lon="2.57714">
        <ele>92.5</ele>
        <time>2013-04-28T08:21:12Z</time>
      </trkpt>
      <trkpt lat="49.84497" lon="2.57726">
        <ele>94</ele>
        <time>2013-04-28T08:21:19Z</time>
      </trkpt>
      <trkpt lat="49.84484" lon="2.57735">
        <ele>96.1</ele>
        <time>2013-04-28T08:21:32Z</time>
      </trkpt>
      <trkpt lat="49.84474" lon="2.57752">
        <ele>96.9</ele>
        <time>2013-04-28T08:21:39Z</time>
      </trkpt>
      <trkpt lat="49.84462" lon="2.57765">
        <ele>96.6</ele>
        <time>2013-04-28T08:21:47Z</time>
      </trkpt>
      <trkpt lat="49.84449" lon="2.57773">
        <ele>96.2</ele>
        <time>2013-04-28T08:21:59Z</time>
      </trkpt>
      <trkpt lat="49.84435" lon="2.5778">
        <ele>95.8</ele>
        <time>2013-04-28T08:22:11Z</time>
      </trkpt>
      <trkpt lat="49.84423" lon="2.57792">
        <ele>95.4</ele>
        <time>2013-04-28T08:22:21Z</time>
      </trkpt>
      <trkpt lat="49.84411" lon="2.57801">
        <ele>95.1</ele>
        <time>2013-04-28T08:22:32Z</time>
      </trkpt>
      <trkpt lat="49.84397" lon="2.57806">
        <ele>94.7</ele>
        <time>2013-04-28T08:22:43Z</time>
      </trkpt>
      <trkpt lat="49.84382" lon="2.57809">
        <ele>94.3</ele>
        <time>2013-04-28T08:22:54Z</time>
      </trkpt>
      <trkpt lat="49.84369" lon="2.57817">
        <ele>93.9</ele>
        <time>2013-04-28T08:23:04Z</time>
      </trkpt>
      <trkpt lat="49.84355" lon="2.57824">
        <ele>93</ele>
        <time>2013-04-28T08:23:14Z</time>
      </trkpt>
      <trkpt lat="49.84343" lon="2.57835">
        <ele>92.2</ele>
        <time>2013-04-28T08:23:23Z</time>
      </trkpt>
      <trkpt lat="49.84329" lon="2.57841">
        <ele>91.3</ele>
        <time>2013-04-28T08:23:34Z</time>
      </trkpt>
      <trkpt lat="49.84316" lon="2.57848">
        <ele>91.4</ele>
        <time>2013-04-28T08:23:44Z</time>
      </trkpt>
      <trkpt lat="49.84302" lon="2.57856">
        <ele>91.9</ele>
        <time>2013-04-28T08:23:55Z</time>
      </trkpt>
      <trkpt lat="49.84288" lon="2.5786">
        <ele>92.5</ele>
        <time>2013-04-28T08:24:05Z</time>
      </trkpt>
      <trkpt lat="49.84274" lon="2.57862">
        <ele>92.9</ele>
        <time>2013-04-28T08:24:14Z</time>
      </trkpt>
      <trkpt lat="49.8426" lon="2.57863">
        <ele>93.4</ele>
        <time>2013-04-28T08:24:23Z</time>
      </trkpt>
      <trkpt lat="49.84246" lon="2.57863">
        <ele>93.9</ele>
        <time>2013-04-28T08:24:33Z</time>
      </trkpt>
      <trkpt lat="49.84232" lon="2.57869">
        <ele>95.5</ele>
        <time>2013-04-28T08:24:43Z</time>
      </trkpt>
      <trkpt lat="49.84218" lon="2.57873">
        <ele>97.3</ele>
        <time>2013-04-28T08:24:53Z</time>
      </trkpt>
      <trkpt lat="49.84204" lon="2.57875">
        <ele>96.2</ele>
        <time>2013-04-28T08:25:04Z</time>
      </trkpt>
      <trkpt lat="49.84189" lon="2.57875">
        <ele>97.3</ele>
        <time>2013-04-28T08:25:14Z</time>
      </trkpt>
      <trkpt lat="49.84175" lon="2.57873">
        <ele>98.4</ele>
        <time>2013-04-28T08:25:23Z</time>
      </trkpt>
      <trkpt lat="49.84161" lon="2.57877">
        <ele>97.5</ele>
        <time>2013-04-28T08:25:34Z</time>
      </trkpt>
      <trkpt lat="49.84147" lon="2.57877">
        <ele>97.1</ele>
        <time>2013-04-28T08:25:44Z</time>
      </trkpt>
      <trkpt lat="49.84132" lon="2.5788">
        <ele>98.6</ele>
        <time>2013-04-28T08:25:53Z</time>
      </trkpt>
      <trkpt lat="49.84118" lon="2.57883">
        <ele>99.6</ele>
        <time>2013-04-28T08:26:00Z</time>
      </trkpt>
      <trkpt lat="49.84104" lon="2.57883">
        <ele>100.9</ele>
        <time>2013-04-28T08:26:11Z</time>
      </trkpt>
      <trkpt lat="49.84089" lon="2.57881">
        <ele>102</ele>
        <time>2013-04-28T08:26:19Z</time>
      </trkpt>
      <trkpt lat="49.84075" lon="2.57876">
        <ele>102.4</ele>
        <time>2013-04-28T08:26:28Z</time>
      </trkpt>
      <trkpt lat="49.84062" lon="2.57875">
        <ele>99.8</ele>
        <time>2013-04-28T08:26:39Z</time>
      </trkpt>
      <trkpt lat="49.84048" lon="2.57867">
        <ele>99.4</ele>
        <time>2013-04-28T08:26:49Z</time>
      </trkpt>
      <trkpt lat="49.84034" lon="2.57864">
        <ele>99.1</ele>
        <time>2013-04-28T08:26:58Z</time>
      </trkpt>
      <trkpt lat="49.84019" lon="2.57863">
        <ele>98.7</ele>
        <time>2013-04-28T08:27:08Z</time>
      </trkpt>
      <trkpt lat="49.84005" lon="2.5786">
        <ele>98.4</ele>
        <time>2013-04-28T08:27:17Z</time>
      </trkpt>
      <trkpt lat="49.83991" lon="2.57858">
        <ele>98</ele>
        <time>2013-04-28T08:27:27Z</time>
      </trkpt>
      <trkpt lat="49.83977" lon="2.57854">
        <ele>97.7</ele>
        <time>2013-04-28T08:27:36Z</time>
      </trkpt>
      <trkpt lat="49.83964" lon="2.57849">
        <ele>97.3</ele>
        <time>2013-04-28T08:27:47Z</time>
      </trkpt>
      <trkpt lat="49.8395" lon="2.57846">
        <ele>96.8</ele>
        <time>2013-04-28T08:27:57Z</time>
      </trkpt>
      <trkpt lat="49.83936" lon="2.57847">
        <ele>95.8</ele>
        <time>2013-04-28T08:28:06Z</time>
      </trkpt>
      <trkpt lat="49.83922" lon="2.57846">
        <ele>94.6</ele>
        <time>2013-04-28T08:28:17Z</time>
      </trkpt>
      <trkpt lat="49.83907" lon="2.57845">
        <ele>93.2</ele>
        <time>2013-04-28T08:28:28Z</time>
      </trkpt>
      <trkpt lat="49.83893" lon="2.57844">
        <ele>92</ele>
        <time>2013-04-28T08:28:38Z</time>
      </trkpt>
      <trkpt lat="49.83879" lon="2.57849">
        <ele>90.9</ele>
        <time>2013-04-28T08:28:48Z</time>
      </trkpt>
      <trkpt lat="49.83865" lon="2.57846">
        <ele>90.4</ele>
        <time>2013-04-28T08:28:58Z</time>
      </trkpt>
      <trkpt lat="49.83851" lon="2.57848">
        <ele>90</ele>
        <time>2013-04-28T08:29:06Z</time>
      </trkpt>
      <trkpt lat="49.83836" lon="2.57849">
        <ele>89.5</ele>
        <time>2013-04-28T08:29:16Z</time>
      </trkpt>
      <trkpt lat="49.83822" lon="2.57854">
        <ele>89.1</ele>
        <time>2013-04-28T08:29:24Z</time>
      </trkpt>
      <trkpt lat="49.83808" lon="2.57861">
        <ele>88.7</ele>
        <time>2013-04-28T08:29:32Z</time>
      </trkpt>
      <trkpt lat="49.83795" lon="2.57862">
        <ele>88</ele>
        <time>2013-04-28T08:29:46Z</time>
      </trkpt>
      <trkpt lat="49.83781" lon="2.57869">
        <ele>87.4</ele>
        <time>2013-04-28T08:29:58Z</time>
      </trkpt>
      <trkpt lat="49.83768" lon="2.57868">
        <ele>87</ele>
        <time>2013-04-28T08:30:04Z</time>
      </trkpt>
      <trkpt lat="49.83753" lon="2.57877">
        <ele>89.8</ele>
        <time>2013-04-28T08:30:11Z</time>
      </trkpt>
      <trkpt lat="49.83744" lon="2.57895">
        <ele>83.5</ele>
        <time>2013-04-28T08:30:21Z</time>
      </trkpt>
      <trkpt lat="49.83731" lon="2.57905">
        <ele>79.3</ele>
        <time>2013-04-28T08:30:38Z</time>
      </trkpt>
      <trkpt lat="49.8372" lon="2.57919">
        <ele>77.9</ele>
        <time>2013-04-28T08:30:48Z</time>
      </trkpt>
      <trkpt lat="49.83708" lon="2.5793">
        <ele>76.1</ele>
        <time>2013-04-28T08:30:58Z</time>
      </trkpt>
      <trkpt lat="49.83695" lon="2.57941">
        <ele>75.2</ele>
        <time>2013-04-28T08:31:08Z</time>
      </trkpt>
      <trkpt lat="49.83683" lon="2.57952">
        <ele>75.7</ele>
        <time>2013-04-28T08:31:20Z</time>
      </trkpt>
      <trkpt lat="49.8367" lon="2.57958">
        <ele>76.1</ele>
        <time>2013-04-28T08:31:33Z</time>
      </trkpt>
      <trkpt lat="49.83657" lon="2.57965">
        <ele>76.2</ele>
        <time>2013-04-28T08:31:43Z</time>
      </trkpt>
      <trkpt lat="49.83645" lon="2.57977">
        <ele>76.3</ele>
        <time>2013-04-28T08:31:57Z</time>
      </trkpt>
      <trkpt lat="49.83632" lon="2.57988">
        <ele>76.4</ele>
        <time>2013-04-28T08:32:06Z</time>
      </trkpt>
      <trkpt lat="49.8362" lon="2.57998">
        <ele>76.5</ele>
        <time>2013-04-28T08:32:14Z</time>
      </trkpt>
      <trkpt lat="49.83608" lon="2.58009">
        <ele>76.5</ele>
        <time>2013-04-28T08:32:20Z</time>
      </trkpt>
      <trkpt lat="49.83594" lon="2.58018">
        <ele>76.6</ele>
        <time>2013-04-28T08:32:27Z</time>
      </trkpt>
      <trkpt lat="49.83581" lon="2.58014">
        <ele>76.7</ele>
        <time>2013-04-28T08:32:35Z</time>
      </trkpt>
      <trkpt lat="49.8357" lon="2.58002">
        <ele>76.8</ele>
        <time>2013-04-28T08:32:49Z</time>
      </trkpt>
      <trkpt lat="49.83556" lon="2.57996">
        <ele>76.9</ele>
        <time>2013-04-28T08:32:59Z</time>
      </trkpt>
      <trkpt lat="49.83542" lon="2.57992">
        <ele>77</ele>
        <time>2013-04-28T08:33:07Z</time>
      </trkpt>
      <trkpt lat="49.83529" lon="2.57991">
        <ele>77.1</ele>
        <time>2013-04-28T08:33:18Z</time>
      </trkpt>
      <trkpt lat="49.83514" lon="2.57989">
        <ele>77.3</ele>
        <time>2013-04-28T08:33:32Z</time>
      </trkpt>
      <trkpt lat="49.835" lon="2.57996">
        <ele>77.3</ele>
        <time>2013-04-28T08:33:40Z</time>
      </trkpt>
      <trkpt lat="49.83487" lon="2.58007">
        <ele>77.4</ele>
        <time>2013-04-28T08:33:47Z</time>
      </trkpt>
      <trkpt lat="49.83473" lon="2.58006">
        <ele>77.5</ele>
        <time>2013-04-28T08:33:55Z</time>
      </trkpt>
      <trkpt lat="49.83459" lon="2.58005">
        <ele>77.6</ele>
        <time>2013-04-28T08:34:06Z</time>
      </trkpt>
      <trkpt lat="49.83444" lon="2.58005">
        <ele>77.7</ele>
        <time>2013-04-28T08:34:15Z</time>
      </trkpt>
      <trkpt lat="49.8343" lon="2.58">
        <ele>77.8</ele>
        <time>2013-04-28T08:34:28Z</time>
      </trkpt>
      <trkpt lat="49.83417" lon="2.57991">
        <ele>77.9</ele>
        <time>2013-04-28T08:34:36Z</time>
      </trkpt>
      <trkpt lat="49.83404" lon="2.57983">
        <ele>78</ele>
        <time>2013-04-28T08:34:47Z</time>
      </trkpt>
      <trkpt lat="49.83394" lon="2.57967">
        <ele>78.2</ele>
        <time>2013-04-28T08:35:02Z</time>
      </trkpt>
      <trkpt lat="49.83386" lon="2.5795">
        <ele>78.2</ele>
        <time>2013-04-28T08:35:10Z</time>
      </trkpt>
      <trkpt lat="49.83375" lon="2.57934">
        <ele>78.3</ele>
        <time>2013-04-28T08:35:19Z</time>
      </trkpt>
      <trkpt lat="49.83364" lon="2.57922">
        <ele>78.4</ele>
        <time>2013-04-28T08:35:25Z</time>
      </trkpt>
      <trkpt lat="49.83351" lon="2.57911">
        <ele>78.5</ele>
        <time>2013-04-28T08:35:32Z</time>
      </trkpt>
      <trkpt lat="49.83339" lon="2.57903">
        <ele>78.6</ele>
        <time>2013-04-28T08:35:42Z</time>
      </trkpt>
      <trkpt lat="49.83328" lon="2.57887">
        <ele>78.7</ele>
        <time>2013-04-28T08:35:57Z</time>
      </trkpt>
      <trkpt lat="49.83317" lon="2.57872">
        <ele>78.8</ele>
        <time>2013-04-28T08:36:08Z</time>
      </trkpt>
      <trkpt lat="49.83311" lon="2.57853">
        <ele>78.9</ele>
        <time>2013-04-28T08:36:18Z</time>
      </trkpt>
      <trkpt lat="49.83298" lon="2.57844">
        <ele>79</ele>
        <time>2013-04-28T08:36:28Z</time>
      </trkpt>
      <trkpt lat="49.83284" lon="2.57842">
        <ele>78.8</ele>
        <time>2013-04-28T08:36:35Z</time>
      </trkpt>
      <trkpt lat="49.8327" lon="2.57842">
        <ele>78.6</ele>
        <time>2013-04-28T08:36:46Z</time>
      </trkpt>
      <trkpt lat="49.83255" lon="2.57841">
        <ele>78.3</ele>
        <time>2013-04-28T08:36:56Z</time>
      </trkpt>
      <trkpt lat="49.83241" lon="2.57837">
        <ele>78.1</ele>
        <time>2013-04-28T08:37:05Z</time>
      </trkpt>
      <trkpt lat="49.83226" lon="2.57838">
        <ele>78</ele>
        <time>2013-04-28T08:37:13Z</time>
      </trkpt>
      <trkpt lat="49.83212" lon="2.57842">
        <ele>77.8</ele>
        <time>2013-04-28T08:37:23Z</time>
      </trkpt>
      <trkpt lat="49.83198" lon="2.57843">
        <ele>77.6</ele>
        <time>2013-04-28T08:37:32Z</time>
      </trkpt>
      <trkpt lat="49.83184" lon="2.57833">
        <ele>77.3</ele>
        <time>2013-04-28T08:37:44Z</time>
      </trkpt>
      <trkpt lat="49.8317" lon="2.57836">
        <ele>77.1</ele>
        <time>2013-04-28T08:37:53Z</time>
      </trkpt>
      <trkpt lat="49.83155" lon="2.57838">
        <ele>76.9</ele>
        <time>2013-04-28T08:38:04Z</time>
      </trkpt>
      <trkpt lat="49.83142" lon="2.5783">
        <ele>76.6</ele>
        <time>2013-04-28T08:38:16Z</time>
      </trkpt>
      <trkpt lat="49.83129" lon="2.57822">
        <ele>76.4</ele>
        <time>2013-04-28T08:38:24Z</time>
      </trkpt>
      <trkpt lat="49.83115" lon="2.57827">
        <ele>76.2</ele>
        <time>2013-04-28T08:38:32Z</time>
      </trkpt>
      <trkpt lat="49.83103" lon="2.57837">
        <ele>76</ele>
        <time>2013-04-28T08:38:42Z</time>
      </trkpt>
      <trkpt lat="49.83087" lon="2.57849">
        <ele>74.2</ele>
        <time>2013-04-28T08:38:48Z</time>
      </trkpt>
      <trkpt lat="49.83074" lon="2.57843">
        <ele>71.7</ele>
        <time>2013-04-28T08:39:01Z</time>
      </trkpt>
      <trkpt lat="49.83062" lon="2.57836">
        <ele>71.4</ele>
        <time>2013-04-28T08:39:08Z</time>
      </trkpt>
      <trkpt lat="49.83061" lon="2.57842">
        <ele>71.2</ele>
        <time>2013-04-28T08:39:18Z</time>
      </trkpt>
      <trkpt lat="49.83047" lon="2.57844">
        <ele>71.2</ele>
        <time>2013-04-28T08:39:26Z</time>
      </trkpt>
      <trkpt lat="49.83052" lon="2.57823">
        <ele>69.4</ele>
        <time>2013-04-28T08:39:35Z</time>
      </trkpt>
      <trkpt lat="49.8305" lon="2.57801">
        <ele>69</ele>
        <time>2013-04-28T08:39:46Z</time>
      </trkpt>
      <trkpt lat="49.83043" lon="2.57782">
        <ele>67.4</ele>
        <time>2013-04-28T08:39:54Z</time>
      </trkpt>
      <trkpt lat="49.83032" lon="2.57752">
        <ele>62.2</ele>
        <time>2013-04-28T08:40:07Z</time>
      </trkpt>
      <trkpt lat="49.83032" lon="2.57752">
        <ele>62.2</ele>
        <time>2013-04-28T08:40:57Z</time>
      </trkpt>
      <trkpt lat="49.83028" lon="2.57734">
        <ele>59.1</ele>
        <time>2013-04-28T08:41:00Z</time>
      </trkpt>
      <trkpt lat="49.83022" lon="2.57714">
        <ele>59.7</ele>
        <time>2013-04-28T08:41:10Z</time>
      </trkpt>
      <trkpt lat="49.83025" lon="2.57692">
        <ele>60.3</ele>
        <time>2013-04-28T08:41:21Z</time>
      </trkpt>
      <trkpt lat="49.83023" lon="2.57671">
        <ele>61</ele>
        <time>2013-04-28T08:41:31Z</time>
      </trkpt>
      <trkpt lat="49.83021" lon="2.57648">
        <ele>61.8</ele>
        <time>2013-04-28T08:41:44Z</time>
      </trkpt>
      <trkpt lat="49.83023" lon="2.57627">
        <ele>62.9</ele>
        <time>2013-04-28T08:41:54Z</time>
      </trkpt>
      <trkpt lat="49.83027" lon="2.576">
        <ele>64.2</ele>
        <time>2013-04-28T08:42:03Z</time>
      </trkpt>
      <trkpt lat="49.83026" lon="2.57579">
        <ele>65.7</ele>
        <time>2013-04-28T08:42:13Z</time>
      </trkpt>
      <trkpt lat="49.83039" lon="2.57569">
        <ele>63.3</ele>
        <time>2013-04-28T08:42:27Z</time>
      </trkpt>
      <trkpt lat="49.83038" lon="2.57545">
        <ele>64.3</ele>
        <time>2013-04-28T08:42:35Z</time>
      </trkpt>
      <trkpt lat="49.8304" lon="2.57525">
        <ele>66</ele>
        <time>2013-04-28T08:42:48Z</time>
      </trkpt>
      <trkpt lat="49.83046" lon="2.57504">
        <ele>67</ele>
        <time>2013-04-28T08:43:01Z</time>
      </trkpt>
      <trkpt lat="49.83047" lon="2.57482">
        <ele>67.7</ele>
        <time>2013-04-28T08:43:09Z</time>
      </trkpt>
      <trkpt lat="49.83056" lon="2.57466">
        <ele>68.7</ele>
        <time>2013-04-28T08:43:21Z</time>
      </trkpt>
      <trkpt lat="49.83066" lon="2.57429">
        <ele>67.6</ele>
        <time>2013-04-28T08:43:35Z</time>
      </trkpt>
      <trkpt lat="49.83066" lon="2.57429">
        <ele>67.6</ele>
        <time>2013-04-28T08:44:08Z</time>
      </trkpt>
      <trkpt lat="49.83071" lon="2.57414">
        <ele>67.1</ele>
        <time>2013-04-28T08:44:09Z</time>
      </trkpt>
      <trkpt lat="49.83081" lon="2.57399">
        <ele>68.4</ele>
        <time>2013-04-28T08:44:20Z</time>
      </trkpt>
      <trkpt lat="49.83085" lon="2.57387">
        <ele>69.1</ele>
        <time>2013-04-28T08:44:29Z</time>
      </trkpt>
      <trkpt lat="49.83084" lon="2.57365">
        <ele>69.7</ele>
        <time>2013-04-28T08:44:36Z</time>
      </trkpt>
      <trkpt lat="49.83081" lon="2.57344">
        <ele>70.3</ele>
        <time>2013-04-28T08:44:43Z</time>
      </trkpt>
      <trkpt lat="49.83082" lon="2.57322">
        <ele>70.4</ele>
        <time>2013-04-28T08:44:56Z</time>
      </trkpt>
      <trkpt lat="49.83084" lon="2.57299">
        <ele>68.2</ele>
        <time>2013-04-28T08:45:06Z</time>
      </trkpt>
      <trkpt lat="49.83092" lon="2.57282">
        <ele>65.5</ele>
        <time>2013-04-28T08:45:18Z</time>
      </trkpt>
      <trkpt lat="49.83096" lon="2.57289">
        <ele>64.7</ele>
        <time>2013-04-28T08:45:26Z</time>
      </trkpt>
      <trkpt lat="49.83101" lon="2.57268">
        <ele>64.1</ele>
        <time>2013-04-28T08:45:36Z</time>
      </trkpt>
      <trkpt lat="49.83103" lon="2.57246">
        <ele>63.5</ele>
        <time>2013-04-28T08:45:46Z</time>
      </trkpt>
      <trkpt lat="49.8311" lon="2.57228">
        <ele>62.9</ele>
        <time>2013-04-28T08:45:55Z</time>
      </trkpt>
      <trkpt lat="49.83112" lon="2.57205">
        <ele>62</ele>
        <time>2013-04-28T08:46:07Z</time>
      </trkpt>
      <trkpt lat="49.83114" lon="2.57184">
        <ele>61.3</ele>
        <time>2013-04-28T08:46:19Z</time>
      </trkpt>
      <trkpt lat="49.83103" lon="2.57171">
        <ele>61.2</ele>
        <time>2013-04-28T08:46:25Z</time>
      </trkpt>
      <trkpt lat="49.83093" lon="2.57156">
        <ele>61.6</ele>
        <time>2013-04-28T08:46:31Z</time>
      </trkpt>
      <trkpt lat="49.83083" lon="2.5714">
        <ele>62.5</ele>
        <time>2013-04-28T08:46:42Z</time>
      </trkpt>
      <trkpt lat="49.83074" lon="2.57124">
        <ele>63.6</ele>
        <time>2013-04-28T08:46:57Z</time>
      </trkpt>
      <trkpt lat="49.83071" lon="2.57118">
        <ele>60.8</ele>
        <time>2013-04-28T08:47:06Z</time>
      </trkpt>
      <trkpt lat="49.83068" lon="2.57096">
        <ele>65.5</ele>
        <time>2013-04-28T08:47:26Z</time>
      </trkpt>
      <trkpt lat="49.83057" lon="2.57084">
        <ele>67.3</ele>
        <time>2013-04-28T08:47:38Z</time>
      </trkpt>
      <trkpt lat="49.8305" lon="2.57064">
        <ele>65</ele>
        <time>2013-04-28T08:47:51Z</time>
      </trkpt>
      <trkpt lat="49.83043" lon="2.57043">
        <ele>62</ele>
        <time>2013-04-28T08:48:08Z</time>
      </trkpt>
      <trkpt lat="49.83032" lon="2.57027">
        <ele>62.9</ele>
        <time>2013-04-28T08:48:16Z</time>
      </trkpt>
      <trkpt lat="49.83036" lon="2.57006">
        <ele>64.3</ele>
        <time>2013-04-28T08:48:30Z</time>
      </trkpt>
      <trkpt lat="49.83032" lon="2.56986">
        <ele>68.6</ele>
        <time>2013-04-28T08:48:41Z</time>
      </trkpt>
      <trkpt lat="49.8303" lon="2.56964">
        <ele>63.3</ele>
        <time>2013-04-28T08:48:53Z</time>
      </trkpt>
      <trkpt lat="49.83024" lon="2.56944">
        <ele>67.1</ele>
        <time>2013-04-28T08:49:04Z</time>
      </trkpt>
      <trkpt lat="49.83026" lon="2.56939">
        <ele>67.7</ele>
        <time>2013-04-28T08:49:16Z</time>
      </trkpt>
      <trkpt lat="49.83023" lon="2.56947">
        <ele>68.4</ele>
        <time>2013-04-28T08:49:31Z</time>
      </trkpt>
      <trkpt lat="49.83012" lon="2.56935">
        <ele>69.1</ele>
        <time>2013-04-28T08:49:45Z</time>
      </trkpt>
      <trkpt lat="49.82998" lon="2.56935">
        <ele>69.8</ele>
        <time>2013-04-28T08:49:59Z</time>
      </trkpt>
      <trkpt lat="49.82984" lon="2.56937">
        <ele>70.4</ele>
        <time>2013-04-28T08:50:09Z</time>
      </trkpt>
      <trkpt lat="49.82971" lon="2.56933">
        <ele>71</ele>
        <time>2013-04-28T08:50:22Z</time>
      </trkpt>
      <trkpt lat="49.82956" lon="2.5693">
        <ele>68.6</ele>
        <time>2013-04-28T08:50:32Z</time>
      </trkpt>
      <trkpt lat="49.82943" lon="2.56924">
        <ele>65.9</ele>
        <time>2013-04-28T08:50:45Z</time>
      </trkpt>
      <trkpt lat="49.82931" lon="2.56917">
        <ele>63</ele>
        <time>2013-04-28T08:50:58Z</time>
      </trkpt>
      <trkpt lat="49.82932" lon="2.56913">
        <ele>61.4</ele>
        <time>2013-04-28T08:51:06Z</time>
      </trkpt>
      <trkpt lat="49.82919" lon="2.5691">
        <ele>61.6</ele>
        <time>2013-04-28T08:51:18Z</time>
      </trkpt>
      <trkpt lat="49.82905" lon="2.56906">
        <ele>62.6</ele>
        <time>2013-04-28T08:51:31Z</time>
      </trkpt>
      <trkpt lat="49.82903" lon="2.56904">
        <ele>63</ele>
        <time>2013-04-28T08:51:38Z</time>
      </trkpt>
      <trkpt lat="49.82905" lon="2.56903">
        <ele>62.5</ele>
        <time>2013-04-28T08:51:46Z</time>
      </trkpt>
      <trkpt lat="49.8289" lon="2.56906">
        <ele>61.6</ele>
        <time>2013-04-28T08:52:02Z</time>
      </trkpt>
      <trkpt lat="49.82876" lon="2.56903">
        <ele>61</ele>
        <time>2013-04-28T08:52:13Z</time>
      </trkpt>
      <trkpt lat="49.82862" lon="2.56903">
        <ele>60.3</ele>
        <time>2013-04-28T08:52:26Z</time>
      </trkpt>
      <trkpt lat="49.82849" lon="2.56896">
        <ele>58.8</ele>
        <time>2013-04-28T08:52:39Z</time>
      </trkpt>
      <trkpt lat="49.82835" lon="2.56897">
        <ele>57</ele>
        <time>2013-04-28T08:52:49Z</time>
      </trkpt>
      <trkpt lat="49.82822" lon="2.56895">
        <ele>55.9</ele>
        <time>2013-04-28T08:52:58Z</time>
      </trkpt>
      <trkpt lat="49.82818" lon="2.56897">
        <ele>56.6</ele>
        <time>2013-04-28T08:53:01Z</time>
      </trkpt>
      <trkpt lat="49.82803" lon="2.569">
        <ele>59</ele>
        <time>2013-04-28T08:53:12Z</time>
      </trkpt>
      <trkpt lat="49.82789" lon="2.56902">
        <ele>56.7</ele>
        <time>2013-04-28T08:53:24Z</time>
      </trkpt>
      <trkpt lat="49.82776" lon="2.56894">
        <ele>56.5</ele>
        <time>2013-04-28T08:53:36Z</time>
      </trkpt>
      <trkpt lat="49.82756" lon="2.56874">
        <ele>54</ele>
        <time>2013-04-28T08:54:06Z</time>
      </trkpt>
      <trkpt lat="49.82756" lon="2.56874">
        <ele>54</ele>
        <time>2013-04-28T09:05:18Z</time>
      </trkpt>
      <trkpt lat="49.82749" lon="2.5686">
        <ele>50.6</ele>
        <time>2013-04-28T09:05:31Z</time>
      </trkpt>
      <trkpt lat="49.82733" lon="2.56838">
        <ele>51.1</ele>
        <time>2013-04-28T09:05:49Z</time>
      </trkpt>
      <trkpt lat="49.82733" lon="2.56838">
        <ele>51.1</ele>
        <time>2013-04-28T09:10:41Z</time>
      </trkpt>
      <trkpt lat="49.82722" lon="2.56836">
        <ele>55</ele>
        <time>2013-04-28T09:10:48Z</time>
      </trkpt>
      <trkpt lat="49.82719" lon="2.56815">
        <ele>54.8</ele>
        <time>2013-04-28T09:10:52Z</time>
      </trkpt>
      <trkpt lat="49.82722" lon="2.56798">
        <ele>54.4</ele>
        <time>2013-04-28T09:10:57Z</time>
      </trkpt>
      <trkpt lat="49.82724" lon="2.56807">
        <ele>53.9</ele>
        <time>2013-04-28T09:11:05Z</time>
      </trkpt>
      <trkpt lat="49.82711" lon="2.56837">
        <ele>51.8</ele>
        <time>2013-04-28T09:11:15Z</time>
      </trkpt>
      <trkpt lat="49.82711" lon="2.56837">
        <ele>51.8</ele>
        <time>2013-04-28T09:12:03Z</time>
      </trkpt>
      <trkpt lat="49.82704" lon="2.56855">
        <ele>50.1</ele>
        <time>2013-04-28T09:12:06Z</time>
      </trkpt>
      <trkpt lat="49.82703" lon="2.5686">
        <ele>49.7</ele>
        <time>2013-04-28T09:12:09Z</time>
      </trkpt>
      <trkpt lat="49.82689" lon="2.5686">
        <ele>44.1</ele>
        <time>2013-04-28T09:12:25Z</time>
      </trkpt>
      <trkpt lat="49.82684" lon="2.5684">
        <ele>40.6</ele>
        <time>2013-04-28T09:12:39Z</time>
      </trkpt>
      <trkpt lat="49.82675" lon="2.56824">
        <ele>36.6</ele>
        <time>2013-04-28T09:12:57Z</time>
      </trkpt>
      <trkpt lat="49.82661" lon="2.56827">
        <ele>35.2</ele>
        <time>2013-04-28T09:13:13Z</time>
      </trkpt>
      <trkpt lat="49.82648" lon="2.56837">
        <ele>33.4</ele>
        <time>2013-04-28T09:13:22Z</time>
      </trkpt>
      <trkpt lat="49.82636" lon="2.56847">
        <ele>33.8</ele>
        <time>2013-04-28T09:13:30Z</time>
      </trkpt>
      <trkpt lat="49.82623" lon="2.56856">
        <ele>39.1</ele>
        <time>2013-04-28T09:13:41Z</time>
      </trkpt>
      <trkpt lat="49.8261" lon="2.56865">
        <ele>40.7</ele>
        <time>2013-04-28T09:13:48Z</time>
      </trkpt>
      <trkpt lat="49.826" lon="2.56878">
        <ele>42.1</ele>
        <time>2013-04-28T09:13:58Z</time>
      </trkpt>
      <trkpt lat="49.82588" lon="2.56893">
        <ele>43</ele>
        <time>2013-04-28T09:14:04Z</time>
      </trkpt>
      <trkpt lat="49.82574" lon="2.56903">
        <ele>44</ele>
        <time>2013-04-28T09:14:11Z</time>
      </trkpt>
      <trkpt lat="49.82561" lon="2.56913">
        <ele>45.8</ele>
        <time>2013-04-28T09:14:18Z</time>
      </trkpt>
      <trkpt lat="49.82548" lon="2.56918">
        <ele>47.5</ele>
        <time>2013-04-28T09:14:25Z</time>
      </trkpt>
      <trkpt lat="49.82536" lon="2.56933">
        <ele>49.8</ele>
        <time>2013-04-28T09:14:34Z</time>
      </trkpt>
      <trkpt lat="49.82524" lon="2.56944">
        <ele>51.7</ele>
        <time>2013-04-28T09:14:44Z</time>
      </trkpt>
      <trkpt lat="49.82512" lon="2.56954">
        <ele>53.6</ele>
        <time>2013-04-28T09:14:55Z</time>
      </trkpt>
      <trkpt lat="49.82499" lon="2.56963">
        <ele>53.6</ele>
        <time>2013-04-28T09:15:08Z</time>
      </trkpt>
      <trkpt lat="49.82488" lon="2.5698">
        <ele>53.3</ele>
        <time>2013-04-28T09:15:16Z</time>
      </trkpt>
      <trkpt lat="49.82478" lon="2.56995">
        <ele>53.2</ele>
        <time>2013-04-28T09:15:29Z</time>
      </trkpt>
      <trkpt lat="49.82465" lon="2.57006">
        <ele>53.5</ele>
        <time>2013-04-28T09:15:38Z</time>
      </trkpt>
      <trkpt lat="49.82451" lon="2.56997">
        <ele>53.9</ele>
        <time>2013-04-28T09:15:47Z</time>
      </trkpt>
      <trkpt lat="49.8244" lon="2.56985">
        <ele>54.3</ele>
        <time>2013-04-28T09:15:56Z</time>
      </trkpt>
      <trkpt lat="49.8243" lon="2.56969">
        <ele>54.7</ele>
        <time>2013-04-28T09:16:06Z</time>
      </trkpt>
      <trkpt lat="49.82421" lon="2.56962">
        <ele>55</ele>
        <time>2013-04-28T09:16:13Z</time>
      </trkpt>
      <trkpt lat="49.82403" lon="2.5697">
        <ele>55.2</ele>
        <time>2013-04-28T09:16:17Z</time>
      </trkpt>
      <trkpt lat="49.824" lon="2.56944">
        <ele>56.2</ele>
        <time>2013-04-28T09:16:31Z</time>
      </trkpt>
      <trkpt lat="49.824" lon="2.56944">
        <ele>56.2</ele>
        <time>2013-04-28T09:17:12Z</time>
      </trkpt>
      <trkpt lat="49.82405" lon="2.56923">
        <ele>57</ele>
        <time>2013-04-28T09:17:16Z</time>
      </trkpt>
      <trkpt lat="49.82412" lon="2.56903">
        <ele>57.5</ele>
        <time>2013-04-28T09:17:38Z</time>
      </trkpt>
      <trkpt lat="49.82415" lon="2.56883">
        <ele>57.7</ele>
        <time>2013-04-28T09:17:45Z</time>
      </trkpt>
      <trkpt lat="49.82427" lon="2.5687">
        <ele>57.9</ele>
        <time>2013-04-28T09:17:53Z</time>
      </trkpt>
      <trkpt lat="49.82422" lon="2.5685">
        <ele>58.2</ele>
        <time>2013-04-28T09:18:05Z</time>
      </trkpt>
      <trkpt lat="49.82424" lon="2.56824">
        <ele>58.3</ele>
        <time>2013-04-28T09:18:10Z</time>
      </trkpt>
      <trkpt lat="49.82431" lon="2.56805">
        <ele>58.4</ele>
        <time>2013-04-28T09:18:15Z</time>
      </trkpt>
      <trkpt lat="49.82435" lon="2.56798">
        <ele>58.6</ele>
        <time>2013-04-28T09:18:21Z</time>
      </trkpt>
      <trkpt lat="49.82429" lon="2.56776">
        <ele>58.9</ele>
        <time>2013-04-28T09:18:33Z</time>
      </trkpt>
      <trkpt lat="49.82425" lon="2.56755">
        <ele>55.7</ele>
        <time>2013-04-28T09:18:42Z</time>
      </trkpt>
      <trkpt lat="49.82424" lon="2.56733">
        <ele>43.6</ele>
        <time>2013-04-28T09:18:58Z</time>
      </trkpt>
      <trkpt lat="49.82417" lon="2.56714">
        <ele>42</ele>
        <time>2013-04-28T09:19:08Z</time>
      </trkpt>
      <trkpt lat="49.82418" lon="2.56692">
        <ele>41.5</ele>
        <time>2013-04-28T09:19:20Z</time>
      </trkpt>
      <trkpt lat="49.82422" lon="2.56671">
        <ele>42</ele>
        <time>2013-04-28T09:19:35Z</time>
      </trkpt>
      <trkpt lat="49.82422" lon="2.56664">
        <ele>42</ele>
        <time>2013-04-28T09:19:42Z</time>
      </trkpt>
      <trkpt lat="49.82413" lon="2.56651">
        <ele>42.1</ele>
        <time>2013-04-28T09:19:54Z</time>
      </trkpt>
      <trkpt lat="49.82417" lon="2.56631">
        <ele>42.3</ele>
        <time>2013-04-28T09:20:00Z</time>
      </trkpt>
      <trkpt lat="49.8242" lon="2.56608">
        <ele>42.5</ele>
        <time>2013-04-28T09:20:06Z</time>
      </trkpt>
      <trkpt lat="49.82417" lon="2.56586">
        <ele>42.8</ele>
        <time>2013-04-28T09:20:16Z</time>
      </trkpt>
      <trkpt lat="49.82416" lon="2.56565">
        <ele>43.1</ele>
        <time>2013-04-28T09:20:28Z</time>
      </trkpt>
      <trkpt lat="49.82421" lon="2.56545">
        <ele>43.4</ele>
        <time>2013-04-28T09:20:39Z</time>
      </trkpt>
      <trkpt lat="49.82422" lon="2.56522">
        <ele>43.7</ele>
        <time>2013-04-28T09:20:49Z</time>
      </trkpt>
      <trkpt lat="49.82428" lon="2.56502">
        <ele>43.9</ele>
        <time>2013-04-28T09:20:56Z</time>
      </trkpt>
      <trkpt lat="49.8243" lon="2.5648">
        <ele>44.1</ele>
        <time>2013-04-28T09:21:04Z</time>
      </trkpt>
      <trkpt lat="49.82425" lon="2.56459">
        <ele>44.4</ele>
        <time>2013-04-28T09:21:12Z</time>
      </trkpt>
      <trkpt lat="49.82427" lon="2.5645">
        <ele>44.5</ele>
        <time>2013-04-28T09:21:17Z</time>
      </trkpt>
      <trkpt lat="49.8244" lon="2.5644">
        <ele>44.8</ele>
        <time>2013-04-28T09:21:27Z</time>
      </trkpt>
      <trkpt lat="49.8245" lon="2.56417">
        <ele>46</ele>
        <time>2013-04-28T09:21:41Z</time>
      </trkpt>
      <trkpt lat="49.82461" lon="2.56402">
        <ele>47.1</ele>
        <time>2013-04-28T09:21:48Z</time>
      </trkpt>
      <trkpt lat="49.82468" lon="2.56384">
        <ele>48.1</ele>
        <time>2013-04-28T09:21:55Z</time>
      </trkpt>
      <trkpt lat="49.82466" lon="2.56362">
        <ele>49.3</ele>
        <time>2013-04-28T09:22:05Z</time>
      </trkpt>
      <trkpt lat="49.82462" lon="2.56347">
        <ele>49.8</ele>
        <time>2013-04-28T09:22:12Z</time>
      </trkpt>
      <trkpt lat="49.82476" lon="2.56335">
        <ele>50.2</ele>
        <time>2013-04-28T09:22:17Z</time>
      </trkpt>
      <trkpt lat="49.82485" lon="2.56318">
        <ele>50.8</ele>
        <time>2013-04-28T09:22:26Z</time>
      </trkpt>
      <trkpt lat="49.82482" lon="2.56296">
        <ele>51.7</ele>
        <time>2013-04-28T09:22:38Z</time>
      </trkpt>
      <trkpt lat="49.82474" lon="2.56277">
        <ele>52.3</ele>
        <time>2013-04-28T09:22:46Z</time>
      </trkpt>
      <trkpt lat="49.82472" lon="2.56262">
        <ele>52.9</ele>
        <time>2013-04-28T09:22:54Z</time>
      </trkpt>
      <trkpt lat="49.82483" lon="2.56247">
        <ele>53.2</ele>
        <time>2013-04-28T09:23:04Z</time>
      </trkpt>
      <trkpt lat="49.82486" lon="2.56233">
        <ele>53.6</ele>
        <time>2013-04-28T09:23:18Z</time>
      </trkpt>
      <trkpt lat="49.8248" lon="2.56234">
        <ele>53.7</ele>
        <time>2013-04-28T09:23:22Z</time>
      </trkpt>
      <trkpt lat="49.82472" lon="2.56204">
        <ele>53.7</ele>
        <time>2013-04-28T09:23:23Z</time>
      </trkpt>
      <trkpt lat="49.8247" lon="2.56196">
        <ele>53.7</ele>
        <time>2013-04-28T09:23:24Z</time>
      </trkpt>
      <trkpt lat="49.82491" lon="2.56175">
        <ele>53.9</ele>
        <time>2013-04-28T09:23:30Z</time>
      </trkpt>
      <trkpt lat="49.82493" lon="2.56154">
        <ele>54.2</ele>
        <time>2013-04-28T09:23:54Z</time>
      </trkpt>
      <trkpt lat="49.82498" lon="2.56143">
        <ele>54.8</ele>
        <time>2013-04-28T09:24:01Z</time>
      </trkpt>
      <trkpt lat="49.82494" lon="2.56125">
        <ele>57</ele>
        <time>2013-04-28T09:24:08Z</time>
      </trkpt>
      <trkpt lat="49.82492" lon="2.56115">
        <ele>57</ele>
        <time>2013-04-28T09:24:13Z</time>
      </trkpt>
      <trkpt lat="49.82486" lon="2.56093">
        <ele>56.6</ele>
        <time>2013-04-28T09:24:26Z</time>
      </trkpt>
      <trkpt lat="49.82485" lon="2.56071">
        <ele>55.5</ele>
        <time>2013-04-28T09:24:35Z</time>
      </trkpt>
      <trkpt lat="49.82484" lon="2.56054">
        <ele>54.8</ele>
        <time>2013-04-28T09:24:41Z</time>
      </trkpt>
      <trkpt lat="49.82483" lon="2.56033">
        <ele>54.5</ele>
        <time>2013-04-28T09:24:58Z</time>
      </trkpt>
      <trkpt lat="49.82474" lon="2.56021">
        <ele>54.9</ele>
        <time>2013-04-28T09:25:12Z</time>
      </trkpt>
      <trkpt lat="49.82479" lon="2.56016">
        <ele>54.5</ele>
        <time>2013-04-28T09:25:16Z</time>
      </trkpt>
      <trkpt lat="49.82469" lon="2.55991">
        <ele>53.9</ele>
        <time>2013-04-28T09:25:23Z</time>
      </trkpt>
      <trkpt lat="49.82466" lon="2.55969">
        <ele>53.4</ele>
        <time>2013-04-28T09:25:28Z</time>
      </trkpt>
      <trkpt lat="49.82463" lon="2.55948">
        <ele>52.6</ele>
        <time>2013-04-28T09:25:36Z</time>
      </trkpt>
      <trkpt lat="49.82458" lon="2.55928">
        <ele>51.2</ele>
        <time>2013-04-28T09:25:50Z</time>
      </trkpt>
      <trkpt lat="49.82456" lon="2.55905">
        <ele>50</ele>
        <time>2013-04-28T09:26:01Z</time>
      </trkpt>
      <trkpt lat="49.8245" lon="2.55886">
        <ele>49.1</ele>
        <time>2013-04-28T09:26:10Z</time>
      </trkpt>
      <trkpt lat="49.82441" lon="2.55869">
        <ele>49.7</ele>
        <time>2013-04-28T09:26:25Z</time>
      </trkpt>
      <trkpt lat="49.82432" lon="2.5582">
        <ele>51.4</ele>
        <time>2013-04-28T09:26:44Z</time>
      </trkpt>
      <trkpt lat="49.82432" lon="2.5582">
        <ele>51.4</ele>
        <time>2013-04-28T09:31:03Z</time>
      </trkpt>
      <trkpt lat="49.82427" lon="2.55806">
        <ele>53.3</ele>
        <time>2013-04-28T09:31:20Z</time>
      </trkpt>
      <trkpt lat="49.82427" lon="2.55806">
        <ele>53.3</ele>
        <time>2013-04-28T09:32:41Z</time>
      </trkpt>
      <trkpt lat="49.82424" lon="2.55814">
        <ele>54</ele>
        <time>2013-04-28T09:32:48Z</time>
      </trkpt>
      <trkpt lat="49.82426" lon="2.55798">
        <ele>53.9</ele>
        <time>2013-04-28T09:32:51Z</time>
      </trkpt>
      <trkpt lat="49.82423" lon="2.55745">
        <ele>54.8</ele>
        <time>2013-04-28T09:33:10Z</time>
      </trkpt>
      <trkpt lat="49.82423" lon="2.55745">
        <ele>54.8</ele>
        <time>2013-04-28T09:34:24Z</time>
      </trkpt>
      <trkpt lat="49.82418" lon="2.55714">
        <ele>56.2</ele>
        <time>2013-04-28T09:34:29Z</time>
      </trkpt>
      <trkpt lat="49.82415" lon="2.55692">
        <ele>54.8</ele>
        <time>2013-04-28T09:34:41Z</time>
      </trkpt>
      <trkpt lat="49.82412" lon="2.55671">
        <ele>53.1</ele>
        <time>2013-04-28T09:34:53Z</time>
      </trkpt>
      <trkpt lat="49.82402" lon="2.55656">
        <ele>51</ele>
        <time>2013-04-28T09:35:07Z</time>
      </trkpt>
      <trkpt lat="49.82393" lon="2.55639">
        <ele>50</ele>
        <time>2013-04-28T09:35:18Z</time>
      </trkpt>
      <trkpt lat="49.8239" lon="2.55616">
        <ele>49.1</ele>
        <time>2013-04-28T09:35:29Z</time>
      </trkpt>
      <trkpt lat="49.82387" lon="2.55601">
        <ele>49.9</ele>
        <time>2013-04-28T09:35:38Z</time>
      </trkpt>
      <trkpt lat="49.82382" lon="2.55593">
        <ele>50.8</ele>
        <time>2013-04-28T09:35:44Z</time>
      </trkpt>
      <trkpt lat="49.82385" lon="2.55572">
        <ele>51.5</ele>
        <time>2013-04-28T09:35:49Z</time>
      </trkpt>
      <trkpt lat="49.82381" lon="2.5555">
        <ele>53.1</ele>
        <time>2013-04-28T09:35:59Z</time>
      </trkpt>
      <trkpt lat="49.82372" lon="2.55534">
        <ele>54.2</ele>
        <time>2013-04-28T09:36:09Z</time>
      </trkpt>
      <trkpt lat="49.82372" lon="2.55511">
        <ele>54.9</ele>
        <time>2013-04-28T09:36:23Z</time>
      </trkpt>
      <trkpt lat="49.82372" lon="2.55489">
        <ele>55.7</ele>
        <time>2013-04-28T09:36:38Z</time>
      </trkpt>
      <trkpt lat="49.82369" lon="2.55466">
        <ele>56.4</ele>
        <time>2013-04-28T09:36:51Z</time>
      </trkpt>
      <trkpt lat="49.82362" lon="2.55445">
        <ele>56.8</ele>
        <time>2013-04-28T09:36:58Z</time>
      </trkpt>
      <trkpt lat="49.82358" lon="2.55424">
        <ele>51.3</ele>
        <time>2013-04-28T09:37:10Z</time>
      </trkpt>
      <trkpt lat="49.82352" lon="2.55405">
        <ele>53.7</ele>
        <time>2013-04-28T09:37:18Z</time>
      </trkpt>
      <trkpt lat="49.82348" lon="2.55383">
        <ele>55.2</ele>
        <time>2013-04-28T09:37:29Z</time>
      </trkpt>
      <trkpt lat="49.82342" lon="2.55363">
        <ele>56.6</ele>
        <time>2013-04-28T09:37:39Z</time>
      </trkpt>
      <trkpt lat="49.82334" lon="2.55346">
        <ele>58.2</ele>
        <time>2013-04-28T09:37:46Z</time>
      </trkpt>
      <trkpt lat="49.82323" lon="2.55329">
        <ele>59.4</ele>
        <time>2013-04-28T09:37:50Z</time>
      </trkpt>
      <trkpt lat="49.82314" lon="2.55311">
        <ele>60.6</ele>
        <time>2013-04-28T09:38:03Z</time>
      </trkpt>
      <trkpt lat="49.82325" lon="2.55297">
        <ele>60.8</ele>
        <time>2013-04-28T09:38:19Z</time>
      </trkpt>
      <trkpt lat="49.82324" lon="2.55276">
        <ele>60.4</ele>
        <time>2013-04-28T09:38:32Z</time>
      </trkpt>
      <trkpt lat="49.82322" lon="2.55253">
        <ele>59.9</ele>
        <time>2013-04-28T09:38:43Z</time>
      </trkpt>
      <trkpt lat="49.82317" lon="2.55234">
        <ele>59.7</ele>
        <time>2013-04-28T09:38:48Z</time>
      </trkpt>
      <trkpt lat="49.82317" lon="2.55211">
        <ele>59.3</ele>
        <time>2013-04-28T09:39:00Z</time>
      </trkpt>
      <trkpt lat="49.82315" lon="2.55189">
        <ele>58.8</ele>
        <time>2013-04-28T09:39:14Z</time>
      </trkpt>
      <trkpt lat="49.82316" lon="2.5518">
        <ele>58.6</ele>
        <time>2013-04-28T09:39:18Z</time>
      </trkpt>
      <trkpt lat="49.82303" lon="2.55168">
        <ele>58.4</ele>
        <time>2013-04-28T09:39:23Z</time>
      </trkpt>
      <trkpt lat="49.82305" lon="2.55147">
        <ele>57.8</ele>
        <time>2013-04-28T09:39:35Z</time>
      </trkpt>
      <trkpt lat="49.82301" lon="2.55125">
        <ele>55.5</ele>
        <time>2013-04-28T09:39:48Z</time>
      </trkpt>
      <trkpt lat="49.823" lon="2.55103">
        <ele>54.3</ele>
        <time>2013-04-28T09:39:59Z</time>
      </trkpt>
      <trkpt lat="49.82291" lon="2.55086">
        <ele>53.4</ele>
        <time>2013-04-28T09:40:10Z</time>
      </trkpt>
      <trkpt lat="49.82287" lon="2.55064">
        <ele>52.5</ele>
        <time>2013-04-28T09:40:20Z</time>
      </trkpt>
      <trkpt lat="49.82285" lon="2.55039">
        <ele>51.8</ele>
        <time>2013-04-28T09:40:29Z</time>
      </trkpt>
      <trkpt lat="49.82276" lon="2.55017">
        <ele>51.1</ele>
        <time>2013-04-28T09:40:37Z</time>
      </trkpt>
      <trkpt lat="49.8227" lon="2.55002">
        <ele>50.1</ele>
        <time>2013-04-28T09:40:51Z</time>
      </trkpt>
      <trkpt lat="49.82283" lon="2.55003">
        <ele>51.1</ele>
        <time>2013-04-28T09:41:03Z</time>
      </trkpt>
      <trkpt lat="49.82295" lon="2.55015">
        <ele>52</ele>
        <time>2013-04-28T09:41:13Z</time>
      </trkpt>
      <trkpt lat="49.82301" lon="2.55022">
        <ele>52.6</ele>
        <time>2013-04-28T09:41:21Z</time>
      </trkpt>
      <trkpt lat="49.82309" lon="2.55003">
        <ele>53.2</ele>
        <time>2013-04-28T09:41:28Z</time>
      </trkpt>
      <trkpt lat="49.82319" lon="2.54998">
        <ele>53.8</ele>
        <time>2013-04-28T09:41:35Z</time>
      </trkpt>
      <trkpt lat="49.82329" lon="2.54983">
        <ele>52.8</ele>
        <time>2013-04-28T09:41:41Z</time>
      </trkpt>
      <trkpt lat="49.82342" lon="2.54974">
        <ele>50.5</ele>
        <time>2013-04-28T09:41:51Z</time>
      </trkpt>
      <trkpt lat="49.82354" lon="2.54964">
        <ele>48.7</ele>
        <time>2013-04-28T09:42:01Z</time>
      </trkpt>
      <trkpt lat="49.82366" lon="2.54953">
        <ele>43.6</ele>
        <time>2013-04-28T09:42:17Z</time>
      </trkpt>
      <trkpt lat="49.82375" lon="2.54944">
        <ele>42.8</ele>
        <time>2013-04-28T09:42:28Z</time>
      </trkpt>
      <trkpt lat="49.82372" lon="2.54922">
        <ele>42.6</ele>
        <time>2013-04-28T09:42:37Z</time>
      </trkpt>
      <trkpt lat="49.82365" lon="2.54898">
        <ele>42.5</ele>
        <time>2013-04-28T09:42:43Z</time>
      </trkpt>
      <trkpt lat="49.82356" lon="2.54881">
        <ele>42.3</ele>
        <time>2013-04-28T09:42:53Z</time>
      </trkpt>
      <trkpt lat="49.8235" lon="2.54862">
        <ele>42.1</ele>
        <time>2013-04-28T09:43:02Z</time>
      </trkpt>
      <trkpt lat="49.82344" lon="2.54843">
        <ele>41.8</ele>
        <time>2013-04-28T09:43:11Z</time>
      </trkpt>
      <trkpt lat="49.82341" lon="2.54821">
        <ele>41.6</ele>
        <time>2013-04-28T09:43:20Z</time>
      </trkpt>
      <trkpt lat="49.82342" lon="2.548">
        <ele>41.2</ele>
        <time>2013-04-28T09:43:36Z</time>
      </trkpt>
      <trkpt lat="49.82334" lon="2.54784">
        <ele>40.9</ele>
        <time>2013-04-28T09:43:47Z</time>
      </trkpt>
      <trkpt lat="49.82324" lon="2.54765">
        <ele>40.6</ele>
        <time>2013-04-28T09:43:58Z</time>
      </trkpt>
      <trkpt lat="49.82313" lon="2.54753">
        <ele>40.4</ele>
        <time>2013-04-28T09:44:05Z</time>
      </trkpt>
      <trkpt lat="49.82303" lon="2.54738">
        <ele>40.1</ele>
        <time>2013-04-28T09:44:14Z</time>
      </trkpt>
      <trkpt lat="49.82297" lon="2.54717">
        <ele>39.9</ele>
        <time>2013-04-28T09:44:25Z</time>
      </trkpt>
      <trkpt lat="49.82286" lon="2.54702">
        <ele>39.6</ele>
        <time>2013-04-28T09:44:36Z</time>
      </trkpt>
      <trkpt lat="49.82276" lon="2.54684">
        <ele>39.3</ele>
        <time>2013-04-28T09:44:47Z</time>
      </trkpt>
      <trkpt lat="49.82262" lon="2.54673">
        <ele>39</ele>
        <time>2013-04-28T09:44:56Z</time>
      </trkpt>
      <trkpt lat="49.82248" lon="2.54672">
        <ele>38.8</ele>
        <time>2013-04-28T09:45:03Z</time>
      </trkpt>
      <trkpt lat="49.82233" lon="2.54671">
        <ele>38.6</ele>
        <time>2013-04-28T09:45:11Z</time>
      </trkpt>
      <trkpt lat="49.82224" lon="2.54668">
        <ele>38.5</ele>
        <time>2013-04-28T09:45:16Z</time>
      </trkpt>
      <trkpt lat="49.82214" lon="2.5465">
        <ele>38.4</ele>
        <time>2013-04-28T09:45:20Z</time>
      </trkpt>
      <trkpt lat="49.82207" lon="2.54631">
        <ele>38.3</ele>
        <time>2013-04-28T09:45:24Z</time>
      </trkpt>
      <trkpt lat="49.82222" lon="2.54621">
        <ele>38.1</ele>
        <time>2013-04-28T09:45:32Z</time>
      </trkpt>
      <trkpt lat="49.82231" lon="2.54602">
        <ele>38.3</ele>
        <time>2013-04-28T09:45:38Z</time>
      </trkpt>
      <trkpt lat="49.8223" lon="2.54581">
        <ele>39.2</ele>
        <time>2013-04-28T09:45:49Z</time>
      </trkpt>
      <trkpt lat="49.8222" lon="2.54564">
        <ele>40.2</ele>
        <time>2013-04-28T09:46:01Z</time>
      </trkpt>
      <trkpt lat="49.82216" lon="2.54542">
        <ele>41.4</ele>
        <time>2013-04-28T09:46:16Z</time>
      </trkpt>
      <trkpt lat="49.82206" lon="2.54528">
        <ele>42.1</ele>
        <time>2013-04-28T09:46:24Z</time>
      </trkpt>
      <trkpt lat="49.82196" lon="2.54512">
        <ele>42.8</ele>
        <time>2013-04-28T09:46:32Z</time>
      </trkpt>
      <trkpt lat="49.82188" lon="2.54495">
        <ele>47</ele>
        <time>2013-04-28T09:46:40Z</time>
      </trkpt>
      <trkpt lat="49.82178" lon="2.5448">
        <ele>47</ele>
        <time>2013-04-28T09:46:51Z</time>
      </trkpt>
      <trkpt lat="49.82168" lon="2.54464">
        <ele>45.6</ele>
        <time>2013-04-28T09:47:01Z</time>
      </trkpt>
      <trkpt lat="49.82158" lon="2.54448">
        <ele>44.4</ele>
        <time>2013-04-28T09:47:13Z</time>
      </trkpt>
      <trkpt lat="49.82149" lon="2.5443">
        <ele>43.1</ele>
        <time>2013-04-28T09:47:25Z</time>
      </trkpt>
      <trkpt lat="49.82142" lon="2.54412">
        <ele>42.3</ele>
        <time>2013-04-28T09:47:38Z</time>
      </trkpt>
      <trkpt lat="49.82138" lon="2.54391">
        <ele>43.8</ele>
        <time>2013-04-28T09:47:49Z</time>
      </trkpt>
      <trkpt lat="49.82135" lon="2.5437">
        <ele>45.3</ele>
        <time>2013-04-28T09:48:00Z</time>
      </trkpt>
      <trkpt lat="49.82136" lon="2.54348">
        <ele>47</ele>
        <time>2013-04-28T09:48:13Z</time>
      </trkpt>
      <trkpt lat="49.82129" lon="2.54329">
        <ele>48</ele>
        <time>2013-04-28T09:48:20Z</time>
      </trkpt>
      <trkpt lat="49.82124" lon="2.54308">
        <ele>46.7</ele>
        <time>2013-04-28T09:48:29Z</time>
      </trkpt>
      <trkpt lat="49.82116" lon="2.5429">
        <ele>45</ele>
        <time>2013-04-28T09:48:41Z</time>
      </trkpt>
      <trkpt lat="49.82116" lon="2.54268">
        <ele>41.5</ele>
        <time>2013-04-28T09:48:52Z</time>
      </trkpt>
      <trkpt lat="49.82114" lon="2.54245">
        <ele>42.6</ele>
        <time>2013-04-28T09:49:04Z</time>
      </trkpt>
      <trkpt lat="49.82116" lon="2.54223">
        <ele>43.7</ele>
        <time>2013-04-28T09:49:16Z</time>
      </trkpt>
      <trkpt lat="49.82119" lon="2.54202">
        <ele>44.9</ele>
        <time>2013-04-28T09:49:27Z</time>
      </trkpt>
      <trkpt lat="49.82125" lon="2.54181">
        <ele>46.2</ele>
        <time>2013-04-28T09:49:39Z</time>
      </trkpt>
      <trkpt lat="49.82128" lon="2.5416">
        <ele>47.7</ele>
        <time>2013-04-28T09:49:50Z</time>
      </trkpt>
      <trkpt lat="49.82133" lon="2.54138">
        <ele>49.5</ele>
        <time>2013-04-28T09:50:01Z</time>
      </trkpt>
      <trkpt lat="49.82136" lon="2.54117">
        <ele>48.6</ele>
        <time>2013-04-28T09:50:11Z</time>
      </trkpt>
      <trkpt lat="49.82142" lon="2.54098">
        <ele>45</ele>
        <time>2013-04-28T09:50:24Z</time>
      </trkpt>
      <trkpt lat="49.82147" lon="2.54078">
        <ele>43.6</ele>
        <time>2013-04-28T09:50:35Z</time>
      </trkpt>
      <trkpt lat="49.82152" lon="2.54058">
        <ele>42.1</ele>
        <time>2013-04-28T09:50:47Z</time>
      </trkpt>
      <trkpt lat="49.82158" lon="2.54038">
        <ele>40.9</ele>
        <time>2013-04-28T09:50:57Z</time>
      </trkpt>
      <trkpt lat="49.82161" lon="2.54017">
        <ele>42</ele>
        <time>2013-04-28T09:51:10Z</time>
      </trkpt>
      <trkpt lat="49.82165" lon="2.53996">
        <ele>42.6</ele>
        <time>2013-04-28T09:51:25Z</time>
      </trkpt>
      <trkpt lat="49.82163" lon="2.53974">
        <ele>43.1</ele>
        <time>2013-04-28T09:51:37Z</time>
      </trkpt>
      <trkpt lat="49.82156" lon="2.53958">
        <ele>43.3</ele>
        <time>2013-04-28T09:51:43Z</time>
      </trkpt>
      <trkpt lat="49.82156" lon="2.53936">
        <ele>43.6</ele>
        <time>2013-04-28T09:51:52Z</time>
      </trkpt>
      <trkpt lat="49.82155" lon="2.53915">
        <ele>44</ele>
        <time>2013-04-28T09:52:02Z</time>
      </trkpt>
      <trkpt lat="49.82154" lon="2.53907">
        <ele>44.2</ele>
        <time>2013-04-28T09:52:07Z</time>
      </trkpt>
      <trkpt lat="49.82144" lon="2.53892">
        <ele>44.6</ele>
        <time>2013-04-28T09:52:18Z</time>
      </trkpt>
      <trkpt lat="49.82132" lon="2.53879">
        <ele>45</ele>
        <time>2013-04-28T09:52:27Z</time>
      </trkpt>
      <trkpt lat="49.82124" lon="2.53861">
        <ele>45.4</ele>
        <time>2013-04-28T09:52:39Z</time>
      </trkpt>
      <trkpt lat="49.82111" lon="2.53854">
        <ele>45.8</ele>
        <time>2013-04-28T09:52:49Z</time>
      </trkpt>
      <trkpt lat="49.82097" lon="2.53853">
        <ele>45.8</ele>
        <time>2013-04-28T09:53:00Z</time>
      </trkpt>
      <trkpt lat="49.82082" lon="2.53854">
        <ele>45.3</ele>
        <time>2013-04-28T09:53:15Z</time>
      </trkpt>
      <trkpt lat="49.82068" lon="2.53849">
        <ele>45.1</ele>
        <time>2013-04-28T09:53:22Z</time>
      </trkpt>
      <trkpt lat="49.82055" lon="2.53857">
        <ele>45</ele>
        <time>2013-04-28T09:53:26Z</time>
      </trkpt>
      <trkpt lat="49.82042" lon="2.53861">
        <ele>44.7</ele>
        <time>2013-04-28T09:53:34Z</time>
      </trkpt>
      <trkpt lat="49.82036" lon="2.53841">
        <ele>44.4</ele>
        <time>2013-04-28T09:53:44Z</time>
      </trkpt>
      <trkpt lat="49.82032" lon="2.53817">
        <ele>44.2</ele>
        <time>2013-04-28T09:53:51Z</time>
      </trkpt>
      <trkpt lat="49.82028" lon="2.53805">
        <ele>44</ele>
        <time>2013-04-28T09:53:56Z</time>
      </trkpt>
      <trkpt lat="49.82043" lon="2.53798">
        <ele>43.8</ele>
        <time>2013-04-28T09:54:03Z</time>
      </trkpt>
      <trkpt lat="49.82041" lon="2.53777">
        <ele>43.5</ele>
        <time>2013-04-28T09:54:13Z</time>
      </trkpt>
      <trkpt lat="49.82036" lon="2.53757">
        <ele>43.2</ele>
        <time>2013-04-28T09:54:24Z</time>
      </trkpt>
      <trkpt lat="49.82028" lon="2.53742">
        <ele>43.1</ele>
        <time>2013-04-28T09:54:31Z</time>
      </trkpt>
      <trkpt lat="49.82034" lon="2.53722">
        <ele>43.4</ele>
        <time>2013-04-28T09:54:37Z</time>
      </trkpt>
      <trkpt lat="49.82034" lon="2.53708">
        <ele>43.7</ele>
        <time>2013-04-28T09:54:44Z</time>
      </trkpt>
      <trkpt lat="49.82032" lon="2.53699">
        <ele>44.6</ele>
        <time>2013-04-28T09:55:02Z</time>
      </trkpt>
      <trkpt lat="49.82018" lon="2.53705">
        <ele>45</ele>
        <time>2013-04-28T09:55:10Z</time>
      </trkpt>
      <trkpt lat="49.82004" lon="2.5371">
        <ele>45.4</ele>
        <time>2013-04-28T09:55:20Z</time>
      </trkpt>
      <trkpt lat="49.8199" lon="2.53714">
        <ele>46</ele>
        <time>2013-04-28T09:55:39Z</time>
      </trkpt>
    </trkseg>
  </trk>
</gpx>